TO3438 / F-HTVJ 7700 Squawk Report (22nd of August, 2019)

Aircraft B738 Reg No. F-HTVJ Age 1 years old
Model 737 Jet engines 2 First flight 21-03-18
Registered 30-03-18 Rollout N/A Delivered 30-03-18
Construction No. 62152 Line No. 6882 Series 800
ADSHEX 39CEA9 Airline name Transavia France Owner N/A
Airfield based Paris-Orly~Essonne~F First tracked 2018-04-05 08:52:00

Flight history for F-HTVJ

Route Flight No Date Playback
???? N/A 2019-09-21 20:45:00
???? N/A 2019-09-21 16:44:00
Habib Bourguiba International (MIR) - Orly (ORY) TO4269 2019-09-21 12:12:00
Orly (ORY) - Habib Bourguiba International (MIR) TO4268 2019-09-21 08:04:00
Menara (RAK) - Orly (ORY) TO3019 2019-09-20 20:08:00
Orly (ORY) - Menara (RAK) TO3018 2019-09-20 17:12:00
Ibn Batouta (TNG) - Orly (ORY) TO3071 2019-09-20 12:57:00
Orly (ORY) - Ibn Batouta (TNG) TO3070 2019-09-20 09:06:00
Inezgane (AGA) - Orly (ORY) TO3009 2019-09-19 20:40:00
Faro (FAO) - Orly (ORY) TO3479 2019-09-19 17:46:00
Nikos Kazantzakis (HER) - Orly (ORY) TO3501 2019-09-19 12:16:00
Orly (ORY) - Nikos Kazantzakis (HER) TO3500 2019-09-19 08:35:00
Nikos Kazantzakis (HER) - Orly (ORY) TO3509 2019-09-18 20:31:00
Orly (ORY) - Nikos Kazantzakis (HER) TO3508 2019-09-18 16:17:00
Porto (OPO) - Orly (ORY) TO3421 2019-09-18 07:25:00
Orly (ORY) - Porto (OPO) TO3420 2019-09-18 05:32:00
Split (SPU) - Orly (ORY) TO4215 2019-09-17 15:14:00
Orly (ORY) - Split (SPU) TO4214 2019-09-17 13:26:00
Zarzis (DJE) - Orly (ORY) TO3369 2019-09-17 08:20:00
Orly (ORY) - Zarzis (DJE) TO3368 2019-09-16 20:12:00
Time Lat Lon Altitude Heading Speed Vertical Rate
2019-08-22 19:35:07 GMT 38.764481 -9.138794 0 168 1 0
2019-08-22 19:35:02 GMT 38.764515 -9.138804 0 168 3 0
2019-08-22 19:34:51 GMT 38.764675 -9.138840 0 168 6 0
2019-08-22 19:34:41 GMT 38.764912 -9.138901 0 163 5 0
2019-08-22 19:34:31 GMT 38.765141 -9.138992 0 135 6 0
2019-08-22 19:34:20 GMT 38.765396 -9.139311 0 171 9 0
2019-08-22 19:34:10 GMT 38.765762 -9.139267 0 233 8 0
2019-08-22 19:34:00 GMT 38.765900 -9.138855 0 258 9 0
2019-08-22 19:33:48 GMT 38.765980 -9.138326 0 258 9 0
2019-08-22 19:33:38 GMT 38.766071 -9.137802 0 258 11 0
2019-08-22 19:33:23 GMT 38.766212 -9.136932 0 258 10 0
2019-08-22 19:33:16 GMT 38.766277 -9.136490 0 258 10 0
2019-08-22 19:33:04 GMT 38.766392 -9.135804 0 258 9 0
2019-08-22 19:32:57 GMT 38.766449 -9.135445 0 258 9 0
2019-08-22 19:32:47 GMT 38.766541 -9.134949 0 253 7 0
2019-08-22 19:32:35 GMT 38.766644 -9.134583 0 227 5 0
2019-08-22 19:32:24 GMT 38.766850 -9.134356 0 213 7 0
2019-08-22 19:32:14 GMT 38.767193 -9.134079 0 213 8 0
2019-08-22 19:32:05 GMT 38.767433 -9.133863 0 210 7 0
2019-08-22 19:31:53 GMT 38.767799 -9.133654 0 177 9 0
2019-08-22 19:31:43 GMT 38.768200 -9.133744 0 168 10 0
2019-08-22 19:31:33 GMT 38.768726 -9.133881 0 168 15 0
2019-08-22 19:31:22 GMT 38.769447 -9.134087 0 168 16 0
2019-08-22 19:31:07 GMT 38.770683 -9.134415 0 168 22 0
2019-08-22 19:31:00 GMT 38.771358 -9.134594 0 168 21 0
2019-08-22 19:30:52 GMT 38.772205 -9.134818 0 168 20 0
2019-08-22 19:30:39 GMT 38.773312 -9.135117 0 168 20 0
2019-08-22 19:30:30 GMT 38.774071 -9.135315 0 168 20 0
2019-08-22 19:30:00 GMT 38.776512 -9.135971 0 171 13 0
2019-08-22 19:29:43 GMT 38.777527 -9.135684 0 202 21 0
2019-08-22 19:29:36 GMT 38.778145 -9.135341 0 202 21 0
2019-08-22 19:29:18 GMT 38.779747 -9.134490 0 202 21 0
2019-08-22 19:29:12 GMT 38.780388 -9.134140 0 202 21 0
2019-08-22 19:27:18 GMT 38.773636 -9.140028 0 22 131 0
2019-08-22 19:27:11 GMT 38.770428 -9.141785 275 22 131 -192
2019-08-22 19:27:00 GMT 38.760406 -9.147133 825 22 135 -768
2019-08-22 19:26:57 GMT 38.762375 -9.145996 400 22 135 -576
2019-08-22 19:26:52 GMT 38.757393 -9.148682 475 22 139 -768
2019-08-22 19:26:48 GMT 38.757393 -9.148682 500 22 139 -768
2019-08-22 19:26:42 GMT 38.753017 -9.151123 600 22 140 -768
2019-08-22 19:26:38 GMT 38.751434 -9.151917 625 22 140 -704
2019-08-22 19:26:29 GMT 38.745380 -9.155151 725 22 135 -768
2019-08-22 19:26:24 GMT 38.742279 -9.156746 800 22 135 -704
2019-08-22 19:26:20 GMT 38.736118 -9.160034 825 22 133 -512
2019-08-22 19:26:12 GMT 38.736118 -9.160034 900 22 132 -640
2019-08-22 19:26:09 GMT 38.730019 -9.163147 1,025 22 130 -576
2019-08-22 19:26:01 GMT 38.730019 -9.163147 1,025 19 129 -640
2019-08-22 19:25:57 GMT 38.727596 -9.164246 1,075 21 132 -704
2019-08-22 19:25:49 GMT 38.722229 -9.167016 1,225 22 135 -704
2019-08-22 19:25:45 GMT 38.720261 -9.168031 1,275 23 134 -704
2019-08-22 19:25:41 GMT 38.718426 -9.169067 1,300 23 139 -192
2019-08-22 19:25:38 GMT 38.716690 -9.170001 1,325 23 141 -512
2019-08-22 19:25:35 GMT 38.714584 -9.171136 1,325 23 141 -512
2019-08-22 19:25:31 GMT 38.712341 -9.172390 1,375 22 144 -1024
2019-08-22 19:25:27 GMT 38.709641 -9.173823 1,450 21 162 -512
2019-08-22 19:25:20 GMT 38.705658 -9.176032 1,700 21 162 -512
2019-08-22 19:25:17 GMT 38.703484 -9.177246 1,875 21 163 -640
2019-08-22 19:25:14 GMT 38.701309 -9.178361 1,875 21 163 -640
2019-08-22 19:25:09 GMT 38.697479 -9.180237 1,650 21 167 -896
2019-08-22 19:25:05 GMT 38.694809 -9.181585 1,725 21 169 -1152
2019-08-22 19:24:59 GMT 38.690872 -9.183555 1,825 24 173 -1088
2019-08-22 19:24:54 GMT 38.686771 -9.185913 2,000 23 192 -832
2019-08-22 19:24:49 GMT 38.683048 -9.188049 2,000 23 178 -960
2019-08-22 19:24:45 GMT 38.679749 -9.189825 2,050 23 182 -448
2019-08-22 19:24:42 GMT 38.676994 -9.191345 2,075 23 187 -768
2019-08-22 19:24:35 GMT 38.672062 -9.194092 2,175 23 190 -1024
2019-08-22 19:24:32 GMT 38.666382 -9.197169 2,300 23 192 -832
2019-08-22 19:24:28 GMT 38.666382 -9.197169 2,275 23 194 -832
2019-08-22 19:24:22 GMT 38.661308 -9.199951 2,350 23 198 -960
2019-08-22 19:24:17 GMT 38.657593 -9.202005 2,400 22 200 -1152
2019-08-22 19:24:14 GMT 38.654572 -9.203617 2,525 22 202 -1472
2019-08-22 19:24:09 GMT 38.649719 -9.206185 2,650 22 204 -1152
2019-08-22 19:24:04 GMT 38.645737 -9.208394 2,900 44 232 -576
2019-08-22 19:24:01 GMT 38.643494 -9.209648 2,800 23 203 -1152
2019-08-22 19:23:53 GMT 38.636261 -9.213409 2,925 22 207 -576
2019-08-22 19:23:49 GMT 38.632507 -9.215380 2,950 23 212 -192
2019-08-22 19:23:42 GMT 38.626465 -9.218903 2,975 44 232 -576
2019-08-22 19:23:38 GMT 38.623123 -9.220992 2,975 28 222 -64
2019-08-22 19:23:33 GMT 38.617630 -9.224933 3,000 32 225 -384
2019-08-22 19:23:30 GMT 38.613647 -9.228456 3,025 37 228 -448
2019-08-22 19:23:21 GMT 38.608246 -9.234367 3,100 49 233 -704
2019-08-22 19:23:18 GMT 38.606236 -9.237122 3,125 49 233 -704
2019-08-22 19:23:12 GMT 38.601791 -9.244338 3,200 58 238 -512
2019-08-22 19:23:08 GMT 38.599640 -9.248876 3,225 65 240 -640
2019-08-22 19:23:01 GMT 38.596527 -9.257952 3,300 72 241 -640
2019-08-22 19:22:58 GMT 38.595528 -9.261963 3,325 75 243 -576
2019-08-22 19:22:51 GMT 38.593826 -9.272461 3,425 83 245 -832
2019-08-22 19:22:47 GMT 38.593460 -9.276939 3,475 86 246 -960
2019-08-22 19:22:42 GMT 38.593342 -9.284302 3,550 93 248 -768
2019-08-22 19:22:38 GMT 38.593826 -9.291388 3,575 97 249 -384
2019-08-22 19:22:30 GMT 38.596024 -9.303211 3,675 109 254 -960
2019-08-22 19:22:20 GMT 38.600510 -9.315809 3,850 122 259 -1024
2019-08-22 19:22:16 GMT 38.602753 -9.320526 3,900 124 258 -1280
2019-08-22 19:22:11 GMT 38.606564 -9.327332 4,075 134 259 -1536
2019-08-22 19:22:07 GMT 38.610535 -9.332886 4,125 138 258 -1920
2019-08-22 19:21:59 GMT 38.617317 -9.339661 4,525 154 256 -1920
2019-08-22 19:21:56 GMT 38.620605 -9.342021 4,475 156 256 -1728
2019-08-22 19:21:48 GMT 38.629093 -9.345764 4,650 170 259 -1344
2019-08-22 19:21:45 GMT 38.632538 -9.346558 4,700 172 260 -1408
2019-08-22 19:21:40 GMT 38.639427 -9.347290 4,875 178 262 -1472
2019-08-22 19:21:36 GMT 38.645294 -9.347473 4,975 178 263 -960
2019-08-22 19:21:30 GMT 38.651531 -9.347595 5,025 179 266 -832
2019-08-22 19:21:25 GMT 38.657501 -9.347634 5,125 179 267 -1408
2019-08-22 19:21:17 GMT 38.667171 -9.347717 5,350 179 265 -1856
2019-08-22 19:21:14 GMT 38.670456 -9.347753 5,425 179 264 -1920
2019-08-22 19:21:08 GMT 38.680161 -9.347839 5,725 179 262 -1536
2019-08-22 19:21:04 GMT 38.682632 -9.347873 5,800 181 267 -512
2019-08-22 19:21:00 GMT 38.689087 -9.347873 5,825 181 263 -1088
2019-08-22 19:20:53 GMT 38.696320 -9.347753 6,325 181 267 -512
2019-08-22 19:20:49 GMT 38.705795 -9.347634 6,000 180 272 -896
2019-08-22 19:20:46 GMT 38.710003 -9.347595 6,025 180 272 -896
2019-08-22 19:20:43 GMT 38.710003 -9.347595 6,025 180 272 -896
2019-08-22 19:20:39 GMT 38.714630 -9.347634 6,150 181 277 -896
2019-08-22 19:20:33 GMT 38.722275 -9.347574 6,250 181 279 -832
2019-08-22 19:20:27 GMT 38.729187 -9.347455 6,275 181 279 -832
2019-08-22 19:20:23 GMT 38.734406 -9.347395 6,325 181 281 -1152
2019-08-22 19:20:19 GMT 38.741135 -9.347275 6,475 181 281 -1664
2019-08-22 19:20:12 GMT 38.749523 -9.347168 6,675 182 278 -2368
2019-08-22 19:20:08 GMT 38.754730 -9.347096 6,850 184 277 -2368
2019-08-22 19:20:04 GMT 38.758713 -9.346857 6,950 187 278 -2176
2019-08-22 19:20:01 GMT 38.763107 -9.346320 7,075 189 279 -1920
2019-08-22 19:19:58 GMT 38.767399 -9.345520 7,175 192 281 -1600
2019-08-22 19:19:55 GMT 38.776520 -9.342976 7,325 193 283 -1408
2019-08-22 19:19:51 GMT 38.776520 -9.342976 7,350 193 284 -1408
2019-08-22 19:19:44 GMT 38.785229 -9.340515 7,525 193 285 -1728
2019-08-22 19:19:40 GMT 38.790207 -9.339095 7,825 194 287 -1216
2019-08-22 19:19:36 GMT 38.795242 -9.337603 7,750 194 287 -1216
2019-08-22 19:19:33 GMT 38.799427 -9.336365 7,800 194 289 -1088
2019-08-22 19:19:30 GMT 38.803665 -9.335095 8,025 194 289 -1088
2019-08-22 19:19:26 GMT 38.814285 -9.331871 8,075 194 293 -1536
2019-08-22 19:19:21 GMT 38.814285 -9.331871 8,000 194 292 -1408
2019-08-22 19:19:18 GMT 38.818771 -9.330497 8,100 194 293 -1536
2019-08-22 19:19:15 GMT 38.822342 -9.329423 8,175 194 292 -1600
2019-08-22 19:19:12 GMT 38.827057 -9.327930 8,275 195 293 -1664
2019-08-22 19:19:09 GMT 38.831734 -9.326416 8,375 195 292 -1728
2019-08-22 19:19:06 GMT 38.835846 -9.325004 8,450 196 292 -1792
2019-08-22 19:19:01 GMT 38.841339 -9.323153 8,575 195 291 -1856
2019-08-22 19:18:55 GMT 38.854454 -9.318787 8,900 194 289 -1920
2019-08-22 19:18:48 GMT 38.858875 -9.317444 9,000 194 288 -1792
2019-08-22 19:18:45 GMT 38.862133 -9.316406 9,300 194 288 -1728
2019-08-22 19:18:39 GMT 38.869308 -9.314137 9,300 194 288 -1664
2019-08-22 19:18:35 GMT 38.876312 -9.311988 9,375 194 288 -1600
2019-08-22 19:18:29 GMT 38.882263 -9.310137 9,500 194 288 -1536
2019-08-22 19:18:25 GMT 38.888855 -9.308105 9,625 194 289 -1600
2019-08-22 19:18:21 GMT 38.893276 -9.306702 9,775 194 290 -1344
2019-08-22 19:18:17 GMT 38.898926 -9.305002 9,775 194 290 -1344
2019-08-22 19:18:13 GMT 38.909500 -9.301718 10,000 194 292 -1280
2019-08-22 19:18:08 GMT 38.910736 -9.301331 10,000 194 291 -1280
2019-08-22 19:18:04 GMT 38.917648 -9.299210 10,125 194 293 -1280
2019-08-22 19:17:57 GMT 38.925064 -9.296941 10,275 194 296 -1216
2019-08-22 19:17:53 GMT 38.930923 -9.295150 10,325 194 297 -1280
2019-08-22 19:17:48 GMT 38.941681 -9.291866 10,450 194 300 -896
2019-08-22 19:17:45 GMT 38.941681 -9.291866 10,500 194 300 -832
2019-08-22 19:17:42 GMT 38.951515 -9.288879 10,550 194 303 -640
2019-08-22 19:17:37 GMT 38.951515 -9.288879 10,575 194 305 -640
2019-08-22 19:17:34 GMT 38.956215 -9.287415 10,600 194 308 -640
2019-08-22 19:17:31 GMT 38.959660 -9.286377 10,625 194 309 -640
2019-08-22 19:17:28 GMT 38.969009 -9.283507 10,700 194 313 -576
2019-08-22 19:17:21 GMT 38.979912 -9.280090 10,750 194 321 -640
2019-08-22 19:17:16 GMT 38.979912 -9.280090 10,800 194 325 -640
2019-08-22 19:17:13 GMT 38.995789 -9.275088 10,875 194 328 -576
2019-08-22 19:17:07 GMT 38.995789 -9.275088 10,875 194 332 -512
2019-08-22 19:17:02 GMT 39.002628 -9.273010 10,975 194 343 -768
2019-08-22 19:16:57 GMT 39.009705 -9.270752 10,950 194 341 -448
2019-08-22 19:16:52 GMT 39.018784 -9.267822 11,050 195 346 -1472
2019-08-22 19:16:49 GMT 39.021854 -9.266846 11,200 194 350 -1600
2019-08-22 19:16:46 GMT 39.025764 -9.265625 11,150 194 349 -1600
2019-08-22 19:16:41 GMT 39.034973 -9.262728 11,325 194 354 -1856
2019-08-22 19:16:36 GMT 39.042057 -9.260498 11,775 194 355 -3712
2019-08-22 19:16:33 GMT 39.047562 -9.258788 11,650 194 356 -3136
2019-08-22 19:16:30 GMT 39.051590 -9.257594 11,800 194 354 -3904
2019-08-22 19:16:26 GMT 39.058678 -9.255371 12,125 194 350 -4928
2019-08-22 19:16:20 GMT 39.068344 -9.252399 12,600 194 346 -4480
2019-08-22 19:16:15 GMT 39.075211 -9.250190 12,900 194 345 -3520
2019-08-22 19:16:09 GMT 39.085098 -9.247085 13,250 194 341 -2944
2019-08-22 19:16:04 GMT 39.091496 -9.245056 13,525 194 342 -2112
2019-08-22 19:16:01 GMT 39.099037 -9.242737 13,600 194 342 -1920
2019-08-22 19:15:57 GMT 39.103088 -9.241455 13,650 194 343 -1920
2019-08-22 19:15:54 GMT 39.107883 -9.239990 13,950 194 344 -1856
2019-08-22 19:15:50 GMT 39.114120 -9.238009 13,900 194 344 -1856
2019-08-22 19:15:47 GMT 39.118870 -9.236511 14,000 194 345 -1728
2019-08-22 19:15:44 GMT 39.123386 -9.235107 14,075 194 346 -1600
2019-08-22 19:15:41 GMT 39.127899 -9.233704 14,175 194 349 -1536
2019-08-22 19:15:38 GMT 39.134399 -9.231680 14,250 194 349 -1664
2019-08-22 19:15:33 GMT 39.145638 -9.228088 14,450 195 350 -2176
2019-08-22 19:15:30 GMT 39.145638 -9.228088 14,575 195 350 -2176
2019-08-22 19:15:27 GMT 39.150524 -9.226562 14,600 194 350 -2112
2019-08-22 19:15:23 GMT 39.155777 -9.224873 14,825 194 350 -2112
2019-08-22 19:15:19 GMT 39.162872 -9.222605 14,875 194 350 -2112
2019-08-22 19:15:16 GMT 39.167770 -9.221052 14,975 194 351 -2048
2019-08-22 19:15:13 GMT 39.172314 -9.219666 15,075 194 351 -1920
2019-08-22 19:15:09 GMT 39.178501 -9.217773 15,250 194 352 -1856
2019-08-22 19:15:05 GMT 39.184296 -9.215977 15,325 194 353 -1920
2019-08-22 19:15:02 GMT 39.188976 -9.214539 15,400 194 353 -1920
2019-08-22 19:14:58 GMT 39.195740 -9.212454 15,525 194 355 -1792
2019-08-22 19:14:55 GMT 39.201508 -9.210663 15,675 194 358 -1536
2019-08-22 19:14:52 GMT 39.205456 -9.209412 15,700 194 358 -1536
2019-08-22 19:14:47 GMT 39.218124 -9.205468 15,875 194 360 -1728
2019-08-22 19:14:44 GMT 39.227291 -9.202576 16,000 194 361 -1728
2019-08-22 19:14:39 GMT 39.227291 -9.202576 16,075 194 362 -1792
2019-08-22 19:14:36 GMT 39.232643 -9.200867 16,175 194 363 -1856
2019-08-22 19:14:32 GMT 39.244995 -9.196930 16,350 194 363 -2048
2019-08-22 19:14:28 GMT 39.244995 -9.196930 16,550 194 364 -2112
2019-08-22 19:14:24 GMT 39.250717 -9.195139 16,600 194 364 -2048
2019-08-22 19:14:21 GMT 39.255615 -9.193586 16,700 194 365 -1856
2019-08-22 19:14:18 GMT 39.261272 -9.191772 16,775 194 366 -1856
2019-08-22 19:14:14 GMT 39.268860 -9.189392 16,925 194 367 -1920
2019-08-22 19:14:11 GMT 39.279427 -9.186096 17,075 194 367 -1984
2019-08-22 19:14:07 GMT 39.279427 -9.186096 17,125 194 369 -1920
2019-08-22 19:14:03 GMT 39.286877 -9.183716 17,275 194 369 -1920
2019-08-22 19:14:00 GMT 39.290043 -9.182739 17,475 194 370 -1984
2019-08-22 19:13:57 GMT 39.296127 -9.180809 17,450 194 370 -1984
2019-08-22 19:13:52 GMT 39.304276 -9.178241 17,600 194 371 -1984
2019-08-22 19:13:47 GMT 39.319092 -9.173645 17,900 194 372 -1920
2019-08-22 19:13:42 GMT 39.321533 -9.172867 17,950 194 373 -1984
2019-08-22 19:13:37 GMT 39.329727 -9.170240 18,075 194 373 -1984
2019-08-22 19:13:34 GMT 39.340714 -9.166718 18,375 194 377 -1984
2019-08-22 19:13:31 GMT 39.340714 -9.166718 18,325 194 376 -1920
2019-08-22 19:13:28 GMT 39.344925 -9.165404 18,550 194 376 -2048
2019-08-22 19:13:23 GMT 39.353714 -9.162598 18,575 194 376 -2048
2019-08-22 19:13:18 GMT 39.367226 -9.158264 18,875 194 378 -2176
2019-08-22 19:13:14 GMT 39.369598 -9.157532 18,925 195 378 -2176
2019-08-22 19:13:11 GMT 39.375046 -9.155762 19,025 195 379 -2112
2019-08-22 19:13:07 GMT 39.381004 -9.153870 19,150 195 379 -2048
2019-08-22 19:13:04 GMT 39.384155 -9.152865 19,375 194 380 -2112
2019-08-22 19:13:00 GMT 39.399578 -9.147827 19,475 194 380 -2048
2019-08-22 19:12:57 GMT 39.399578 -9.147827 19,525 194 381 -1984
2019-08-22 19:12:53 GMT 39.406174 -9.145760 19,650 194 382 -1920
2019-08-22 19:12:50 GMT 39.410110 -9.144506 19,725 194 383 -1984
2019-08-22 19:12:45 GMT 39.417969 -9.141968 20,400 194 382 -2048
2019-08-22 19:12:42 GMT 39.423508 -9.140320 20,000 192 384 -2176
2019-08-22 19:12:37 GMT 39.430710 -9.138416 20,125 190 385 -2048
2019-08-22 19:12:33 GMT 39.438217 -9.136780 20,375 189 387 -2048
2019-08-22 19:12:29 GMT 39.447327 -9.135012 20,475 189 388 -2240
2019-08-22 19:12:24 GMT 39.454788 -9.133520 20,600 189 388 -2304
2019-08-22 19:12:21 GMT 39.460052 -9.132507 20,825 189 389 -2304
2019-08-22 19:12:18 GMT 39.465218 -9.131531 20,925 189 389 -2176
2019-08-22 19:12:15 GMT 39.470898 -9.130432 20,975 189 390 -2112
2019-08-22 19:12:11 GMT 39.477768 -9.129101 21,125 189 391 -2048
2019-08-22 19:12:08 GMT 39.484119 -9.127869 21,225 189 392 -2048
2019-08-22 19:12:05 GMT 39.488708 -9.127012 21,325 189 392 -2112
2019-08-22 19:12:00 GMT 39.497807 -9.125305 21,500 189 393 -2368
2019-08-22 19:11:57 GMT 39.502945 -9.124325 21,650 189 393 -2560
2019-08-22 19:11:54 GMT 39.508347 -9.123310 21,875 189 393 -2304
2019-08-22 19:11:50 GMT 39.515533 -9.121936 21,875 189 393 -2368
2019-08-22 19:11:45 GMT 39.526482 -9.119873 22,075 189 396 -1216
2019-08-22 19:11:40 GMT 39.534714 -9.118354 22,175 189 398 -1024
2019-08-22 19:11:34 GMT 39.545940 -9.116211 22,225 189 399 -1088
2019-08-22 19:11:29 GMT 39.553993 -9.114685 22,375 189 400 -1152
2019-08-22 19:11:26 GMT 39.561081 -9.113398 22,475 189 402 -1088
2019-08-22 19:11:23 GMT 39.566841 -9.112305 22,475 189 403 -1088
2019-08-22 19:11:19 GMT 39.580078 -9.109756 22,575 189 404 -1152
2019-08-22 19:11:15 GMT 39.580078 -9.109756 22,625 189 405 -1152
2019-08-22 19:11:11 GMT 39.587791 -9.108276 22,700 189 407 -1216
2019-08-22 19:11:08 GMT 39.591980 -9.107427 22,725 189 408 -1152
2019-08-22 19:11:04 GMT 39.599487 -9.105994 22,850 189 411 -1152
2019-08-22 19:11:01 GMT 39.609238 -9.104143 22,925 189 412 -1088
2019-08-22 19:10:54 GMT 39.620224 -9.101994 22,975 189 414 -576
2019-08-22 19:10:47 GMT 39.631851 -9.099725 23,000 189 415 64
2019-08-22 19:10:43 GMT 39.640778 -9.097993 23,000 189 416 0
2019-08-22 19:10:36 GMT 39.654221 -9.095398 23,000 189 416 0
2019-08-22 19:10:31 GMT 39.670303 -9.092321 23,000 189 416 0
2019-08-22 19:10:26 GMT 39.675171 -9.091370 23,000 189 416 0
2019-08-22 19:10:22 GMT 39.680054 -9.090470 23,000 189 416 0
2019-08-22 19:10:15 GMT 39.692162 -9.088135 23,000 189 416 0
2019-08-22 19:10:12 GMT 39.700653 -9.086470 23,000 189 416 0
2019-08-22 19:10:07 GMT 39.708363 -9.085022 23,000 189 417 0
2019-08-22 19:10:04 GMT 39.713058 -9.084081 23,000 189 417 0
2019-08-22 19:10:01 GMT 39.720604 -9.082642 23,000 189 417 0
2019-08-22 19:09:57 GMT 39.728531 -9.081156 23,000 189 417 0
2019-08-22 19:09:53 GMT 39.734070 -9.080081 23,000 189 417 0
2019-08-22 19:09:50 GMT 39.740669 -9.078796 23,000 189 417 0
2019-08-22 19:09:47 GMT 39.748215 -9.077334 23,000 189 417 0
2019-08-22 19:09:42 GMT 39.757847 -9.075500 23,000 189 417 0
2019-08-22 19:09:39 GMT 39.760918 -9.074890 23,000 189 417 0
2019-08-22 19:09:36 GMT 39.774326 -9.072388 23,000 189 418 0
2019-08-22 19:09:32 GMT 39.774326 -9.072388 23,000 189 418 0
2019-08-22 19:09:29 GMT 39.784054 -9.070496 23,000 189 418 0
2019-08-22 19:09:26 GMT 39.787811 -9.069811 23,000 189 418 0
2019-08-22 19:09:21 GMT 39.796532 -9.068115 23,000 189 418 0
2019-08-22 19:09:18 GMT 39.801094 -9.067261 23,000 189 418 0
2019-08-22 19:09:15 GMT 39.807983 -9.065918 23,000 189 418 0
2019-08-22 19:09:11 GMT 39.815552 -9.064497 23,000 189 418 0
2019-08-22 19:09:08 GMT 39.821320 -9.063422 23,000 189 418 0
2019-08-22 19:09:04 GMT 39.828598 -9.061989 23,000 189 418 0
2019-08-22 19:09:01 GMT 39.835098 -9.060735 23,000 189 418 0
2019-08-22 19:08:58 GMT 39.842377 -9.059362 23,000 189 418 0
2019-08-22 19:08:53 GMT 39.856258 -9.056641 23,000 189 418 0
2019-08-22 19:08:50 GMT 39.856258 -9.056641 23,000 189 418 0
2019-08-22 19:08:46 GMT 39.863663 -9.055242 23,000 189 418 0
2019-08-22 19:08:42 GMT 39.873528 -9.053345 23,000 189 418 0
2019-08-22 19:08:37 GMT 39.882660 -9.051540 23,000 189 418 0
2019-08-22 19:08:34 GMT 39.888100 -9.050476 23,000 189 418 0
2019-08-22 19:08:29 GMT 39.895889 -9.048973 23,000 189 419 0
2019-08-22 19:08:26 GMT 39.907745 -9.046704 23,000 189 419 0
2019-08-22 19:08:19 GMT 39.916866 -9.044922 23,000 189 419 0
2019-08-22 19:08:15 GMT 39.929810 -9.042358 23,000 189 419 0
2019-08-22 19:08:11 GMT 39.935211 -9.041321 23,000 189 419 0
2019-08-22 19:08:08 GMT 39.935211 -9.041321 23,000 189 419 0
2019-08-22 19:08:05 GMT 39.943542 -9.039751 23,000 189 419 0
2019-08-22 19:08:01 GMT 39.949127 -9.038627 23,000 189 419 0
2019-08-22 19:07:58 GMT 39.956131 -9.037292 23,000 189 419 0
2019-08-22 19:07:54 GMT 39.963409 -9.035828 23,000 189 419 0
2019-08-22 19:07:51 GMT 39.968494 -9.034882 23,000 189 419 0
2019-08-22 19:07:48 GMT 39.975311 -9.033569 23,000 189 419 0
2019-08-22 19:07:45 GMT 39.980850 -9.032471 23,000 189 419 0
2019-08-22 19:07:41 GMT 39.988651 -9.030949 23,000 189 419 0
2019-08-22 19:07:35 GMT 40.001953 -9.028381 23,000 189 419 0
2019-08-22 19:07:31 GMT 40.007904 -9.027222 23,000 189 419 0
2019-08-22 19:07:27 GMT 40.014534 -9.025893 23,000 189 419 0
2019-08-22 19:07:24 GMT 40.021236 -9.024644 23,000 189 419 0
2019-08-22 19:07:21 GMT 40.028229 -9.023254 23,000 189 419 0
2019-08-22 19:07:13 GMT 40.041767 -9.020649 23,000 189 419 0
2019-08-22 19:07:10 GMT 40.047272 -9.019592 23,000 189 419 0
2019-08-22 19:07:06 GMT 40.054138 -9.018250 23,000 189 419 0
2019-08-22 19:07:03 GMT 40.062717 -9.016592 23,000 189 419 0
2019-08-22 19:07:00 GMT 40.067513 -9.015656 23,000 189 419 0
2019-08-22 19:06:54 GMT 40.077576 -9.013733 23,000 189 418 0
2019-08-22 19:06:50 GMT 40.088699 -9.011597 23,000 189 418 0
2019-08-22 19:06:45 GMT 40.094700 -9.010412 23,000 189 418 0
2019-08-22 19:06:39 GMT 40.107056 -9.007996 23,000 189 418 0
2019-08-22 19:06:35 GMT 40.113457 -9.006792 23,000 189 418 0
2019-08-22 19:06:31 GMT 40.123421 -9.004856 23,000 189 417 0
2019-08-22 19:06:28 GMT 40.133198 -9.002921 23,000 189 417 64
2019-08-22 19:06:25 GMT 40.133198 -9.002921 23,000 189 417 64
2019-08-22 19:06:19 GMT 40.146744 -9.000300 23,000 189 417 0
2019-08-22 19:06:14 GMT 40.153820 -8.998864 23,000 189 417 0
2019-08-22 19:06:08 GMT 40.166805 -8.996367 23,000 189 417 0
2019-08-22 19:06:04 GMT 40.173798 -8.994995 23,000 189 416 0
2019-08-22 19:05:57 GMT 40.186569 -8.992493 23,000 189 416 0
2019-08-22 19:05:54 GMT 40.193340 -8.991124 23,000 189 416 0
2019-08-22 19:05:47 GMT 40.205795 -8.988647 23,000 189 416 0
2019-08-22 19:05:43 GMT 40.214172 -8.987000 23,000 189 416 0
2019-08-22 19:05:37 GMT 40.233143 -8.983321 23,000 189 415 0
2019-08-22 19:05:33 GMT 40.233143 -8.983321 23,000 189 415 0
2019-08-22 19:05:28 GMT 40.244476 -8.981079 23,000 189 415 0
2019-08-22 19:05:22 GMT 40.253300 -8.979326 23,000 189 415 0
2019-08-22 19:05:18 GMT 40.263290 -8.977417 23,000 189 415 0
2019-08-22 19:05:12 GMT 40.272400 -8.975647 23,000 189 415 0
2019-08-22 19:05:07 GMT 40.284210 -8.973328 23,000 189 415 0
2019-08-22 19:04:59 GMT 40.296936 -8.970886 23,000 189 415 0
2019-08-22 19:04:54 GMT 40.306641 -8.969055 23,000 189 415 0
2019-08-22 19:04:51 GMT 40.312317 -8.967896 23,000 189 414 0
2019-08-22 19:04:45 GMT 40.325272 -8.965393 23,000 189 414 0
2019-08-22 19:04:40 GMT 40.341385 -8.962219 23,000 189 414 0
2019-08-22 19:04:33 GMT 40.347061 -8.961121 23,000 189 414 0
2019-08-22 19:04:30 GMT 40.352272 -8.960100 23,000 189 414 0
2019-08-22 19:04:23 GMT 40.372284 -8.956177 23,000 189 414 0
2019-08-22 19:04:15 GMT 40.387184 -8.953233 23,000 189 414 0
2019-08-22 19:04:09 GMT 40.391933 -8.952297 23,000 189 414 0
2019-08-22 19:04:02 GMT 40.405945 -8.949488 23,000 189 414 0
2019-08-22 19:03:59 GMT 40.411926 -8.948303 23,000 189 414 0
2019-08-22 19:03:52 GMT 40.425823 -8.945555 23,000 189 414 64
2019-08-22 19:03:48 GMT 40.431549 -8.944432 23,000 189 414 64
2019-08-22 19:03:43 GMT 40.442722 -8.942247 23,000 189 413 64
2019-08-22 19:03:40 GMT 40.447357 -8.941345 23,000 189 413 64
2019-08-22 19:03:31 GMT 40.464569 -8.937927 23,000 189 414 0
2019-08-22 19:03:27 GMT 40.471207 -8.936584 23,000 189 413 0
2019-08-22 19:03:23 GMT 40.484299 -8.934021 23,000 189 414 0
2019-08-22 19:03:17 GMT 40.489880 -8.932946 23,000 189 414 64
2019-08-22 19:03:11 GMT 40.504211 -8.930115 23,000 189 414 64
2019-08-22 19:03:07 GMT 40.509991 -8.928951 23,000 189 414 64
2019-08-22 19:03:00 GMT 40.523628 -8.926267 23,000 189 414 0
2019-08-22 19:02:57 GMT 40.529434 -8.925110 23,000 189 414 64
2019-08-22 19:02:49 GMT 40.544220 -8.922180 23,000 189 414 64
2019-08-22 19:02:46 GMT 40.549164 -8.921204 23,000 189 414 0
2019-08-22 19:02:39 GMT 40.563766 -8.918335 23,000 189 415 0
2019-08-22 19:02:35 GMT 40.570221 -8.917053 23,000 189 415 0
2019-08-22 19:02:29 GMT 40.582657 -8.914656 23,000 189 415 0
2019-08-22 19:02:24 GMT 40.591324 -8.912964 23,000 189 415 0
2019-08-22 19:02:20 GMT 40.600433 -8.911133 23,000 189 415 -64
2019-08-22 19:02:17 GMT 40.611195 -8.909038 23,025 189 415 -64
2019-08-22 19:02:14 GMT 40.611195 -8.909038 23,000 189 415 -64
2019-08-22 19:02:09 GMT 40.622040 -8.906916 23,025 189 416 -128
2019-08-22 19:02:06 GMT 40.625748 -8.906189 23,025 189 416 -128
2019-08-22 19:02:03 GMT 40.631470 -8.905090 23,025 189 416 -64
2019-08-22 19:01:58 GMT 40.642429 -8.902921 23,025 189 416 -64
2019-08-22 19:01:55 GMT 40.651703 -8.901123 23,000 189 416 192
2019-08-22 19:01:46 GMT 40.663513 -8.898743 22,900 189 415 0
2019-08-22 19:01:43 GMT 40.668781 -8.897740 22,900 189 415 1152
2019-08-22 19:01:39 GMT 40.678940 -8.895691 22,750 189 415 1920
2019-08-22 19:01:36 GMT 40.683517 -8.894775 22,575 189 415 2432
2019-08-22 19:01:33 GMT 40.689495 -8.893620 22,550 189 415 2560
2019-08-22 19:01:30 GMT 40.694138 -8.892700 22,450 189 415 2560
2019-08-22 19:01:26 GMT 40.703739 -8.890748 22,175 189 412 2176
2019-08-22 19:01:21 GMT 40.717987 -8.887939 22,075 189 411 2368
2019-08-22 19:01:18 GMT 40.717987 -8.887939 21,850 189 411 2624
2019-08-22 19:01:15 GMT 40.722454 -8.887066 21,775 189 411 2624
2019-08-22 19:01:12 GMT 40.728088 -8.885942 21,725 189 410 2560
2019-08-22 19:01:08 GMT 40.738495 -8.883850 21,500 189 409 2368
2019-08-22 19:01:04 GMT 40.742432 -8.883057 21,300 189 408 2304
2019-08-22 19:01:01 GMT 40.748611 -8.881836 21,300 189 407 2304
2019-08-22 19:00:57 GMT 40.756531 -8.880262 21,200 189 406 2368
2019-08-22 19:00:54 GMT 40.762115 -8.879138 20,950 189 405 2432
2019-08-22 19:00:51 GMT 40.766876 -8.878235 20,900 189 404 2432
2019-08-22 19:00:47 GMT 40.775024 -8.876648 20,675 189 403 2560
2019-08-22 19:00:44 GMT 40.781204 -8.875393 20,575 189 402 2752
2019-08-22 19:00:40 GMT 40.786930 -8.874269 20,250 189 401 2752
2019-08-22 19:00:37 GMT 40.802994 -8.871094 20,200 189 401 2752
2019-08-22 19:00:33 GMT 40.802994 -8.871094 20,025 189 401 2816
2019-08-22 19:00:30 GMT 40.805878 -8.870524 19,950 189 400 2752
2019-08-22 19:00:24 GMT 40.816677 -8.868339 19,625 189 399 2560
2019-08-22 19:00:21 GMT 40.822952 -8.867126 19,625 189 399 2560
2019-08-22 19:00:12 GMT 40.845772 -8.862534 18,950 189 395 2688
2019-08-22 19:00:03 GMT 40.854675 -8.860779 18,825 189 393 2432
2019-08-22 19:00:00 GMT 40.860443 -8.859619 18,700 189 392 2432
2019-08-22 18:59:54 GMT 40.876877 -8.856384 18,375 189 388 2304
2019-08-22 18:59:51 GMT 40.895279 -8.852722 17,950 189 387 2304
2019-08-22 18:59:41 GMT 40.895279 -8.852722 17,875 189 384 2752
2019-08-22 18:59:34 GMT 40.908337 -8.850174 17,525 189 381 2432
2019-08-22 18:59:31 GMT 40.912525 -8.849300 17,200 189 378 2688
2019-08-22 18:59:21 GMT 40.935848 -8.844681 16,525 189 373 2944
2019-08-22 18:59:12 GMT 40.944534 -8.842957 16,600 189 373 2944
2019-08-22 18:59:09 GMT 40.949768 -8.841934 16,425 189 372 3136
2019-08-22 18:59:00 GMT 40.966621 -8.838563 15,900 189 370 2880
2019-08-22 18:58:55 GMT 40.973831 -8.837097 15,700 189 369 3264
2019-08-22 18:58:49 GMT 40.984634 -8.834961 15,300 189 370 3520
2019-08-22 18:58:44 GMT 40.992317 -8.833382 15,075 189 369 3008
2019-08-22 18:58:39 GMT 41.001442 -8.831635 14,750 189 365 3008
2019-08-22 18:58:35 GMT 41.007889 -8.830322 14,625 189 364 3328
2019-08-22 18:58:29 GMT 41.019131 -8.828139 14,250 189 363 3328
2019-08-22 18:58:26 GMT 41.021599 -8.827639 14,175 189 363 3200
2019-08-22 18:58:20 GMT 41.031887 -8.825580 13,850 189 361 3136
2019-08-22 18:58:15 GMT 41.039848 -8.823957 13,600 189 360 3072
2019-08-22 18:58:08 GMT 41.053207 -8.821289 13,175 189 358 3200
2019-08-22 18:58:03 GMT 41.060257 -8.819824 12,950 189 357 3136
2019-08-22 18:57:57 GMT 41.070293 -8.817839 12,650 189 355 2944
2019-08-22 18:57:53 GMT 41.076485 -8.816591 12,450 189 353 2752
2019-08-22 18:57:47 GMT 41.088318 -8.814148 12,150 189 349 2432
2019-08-22 18:57:41 GMT 41.095898 -8.812596 11,950 189 347 2560
2019-08-22 18:57:36 GMT 41.105164 -8.810730 11,675 189 344 2944
2019-08-22 18:57:33 GMT 41.109211 -8.809912 11,425 189 342 2688
2019-08-22 18:57:25 GMT 41.121460 -8.807434 11,275 189 337 1600
2019-08-22 18:57:22 GMT 41.126129 -8.806519 11,200 189 330 896
2019-08-22 18:57:18 GMT 41.132160 -8.805292 11,150 189 322 896
2019-08-22 18:57:13 GMT 41.138809 -8.803955 11,075 189 322 896
2019-08-22 18:57:08 GMT 41.146866 -8.802368 11,000 189 300 1088
2019-08-22 18:57:04 GMT 41.152645 -8.801235 10,850 189 305 1024
2019-08-22 18:57:00 GMT 41.157486 -8.800232 10,875 189 301 1152
2019-08-22 18:56:54 GMT 41.166870 -8.798401 10,725 189 287 896
2019-08-22 18:56:51 GMT 41.171677 -8.797424 10,675 189 283 960
2019-08-22 18:56:48 GMT 41.174423 -8.796875 10,650 189 280 1344
2019-08-22 18:56:43 GMT 41.181976 -8.795410 10,450 189 275 2496
2019-08-22 18:56:37 GMT 41.187836 -8.794244 10,200 189 274 3264
2019-08-22 18:56:31 GMT 41.196030 -8.792603 9,850 189 273 3456
2019-08-22 18:56:26 GMT 41.202805 -8.791260 9,525 189 273 3520
2019-08-22 18:56:23 GMT 41.209854 -8.789856 9,275 189 274 3392
2019-08-22 18:56:20 GMT 41.214279 -8.789000 8,700 189 274 3584
2019-08-22 18:56:16 GMT 41.214279 -8.789000 8,700 189 274 3584
2019-08-22 18:56:11 GMT 41.220108 -8.787781 8,625 189 274 3584
2019-08-22 18:56:07 GMT 41.226055 -8.786628 8,400 189 274 3584
2019-08-22 18:56:04 GMT 41.229996 -8.785828 8,225 189 274 3712
2019-08-22 18:56:01 GMT 41.240486 -8.783694 7,650 189 275 3712
2019-08-22 18:55:56 GMT 41.240486 -8.783694 7,725 189 275 3584
2019-08-22 18:55:50 GMT 41.248169 -8.782196 7,350 189 275 3584
2019-08-22 18:55:47 GMT 41.251282 -8.781555 7,200 189 274 3648
2019-08-22 18:55:44 GMT 41.254303 -8.780945 7,050 189 275 3648
2019-08-22 18:55:41 GMT 41.259201 -8.780029 6,525 189 275 3520
2019-08-22 18:55:34 GMT 41.266891 -8.778564 6,550 189 275 3456
2019-08-22 18:55:29 GMT 41.273029 -8.777390 6,200 188 274 3328
2019-08-22 18:55:23 GMT 41.280708 -8.776079 5,850 187 273 3328
2019-08-22 18:55:19 GMT 41.286163 -8.775146 5,600 187 272 3328
2019-08-22 18:55:15 GMT 41.291275 -8.774393 5,300 187 271 3328
2019-08-22 18:55:12 GMT 41.294952 -8.773865 5,300 187 271 3328
2019-08-22 18:55:05 GMT 41.304749 -8.771729 4,775 198 273 3264
2019-08-22 18:55:02 GMT 41.307770 -8.770569 4,650 205 273 3072
2019-08-22 18:54:57 GMT 41.312988 -8.767212 4,425 218 272 2816
2019-08-22 18:54:52 GMT 41.318043 -8.762471 4,200 221 271 2816
2019-08-22 18:54:49 GMT 41.320789 -8.759037 4,050 229 269 2496
2019-08-22 18:54:46 GMT 41.323105 -8.755493 3,950 236 267 2240
2019-08-22 18:54:35 GMT 41.329029 -8.739874 3,550 259 254 2048
2019-08-22 18:54:27 GMT 41.329590 -8.725454 3,275 294 233 1472
2019-08-22 18:54:24 GMT 41.329262 -8.723082 3,225 286 238 1600
2019-08-22 18:54:18 GMT 41.326656 -8.713968 3,050 299 230 1472
2019-08-22 18:54:15 GMT 41.324097 -8.709162 2,950 315 221 1472
2019-08-22 18:54:03 GMT 41.315994 -8.700860 2,450 348 194 1792
2019-08-22 18:53:53 GMT 41.306305 -8.696533 2,475 348 194 1728
2019-08-22 18:53:45 GMT 41.299004 -8.694493 2,250 350 176 960
2019-08-22 18:53:42 GMT 41.297607 -8.694153 2,225 350 182 1152
2019-08-22 18:53:32 GMT 41.288994 -8.692058 2,000 350 168 1792
We lost coverage of the aircraft here for a total of 75 minutes
2019-08-22 17:38:52 GMT 41.262177 -8.684937 150 168 153 -768
2019-08-22 17:38:47 GMT 41.266136 -8.686003 225 168 154 -640
2019-08-22 17:38:21 GMT 41.284012 -8.690735 525 168 156 -640
2019-08-22 17:38:15 GMT 41.288391 -8.691871 575 168 159 -832
2019-08-22 17:38:04 GMT 41.296211 -8.693868 725 168 159 -768
2019-08-22 17:37:54 GMT 41.303421 -8.695801 850 168 157 -704
2019-08-22 17:37:43 GMT 41.311295 -8.697937 975 168 154 -704
2019-08-22 17:37:30 GMT 41.320129 -8.700195 1,125 168 152 -576
2019-08-22 17:37:22 GMT 41.326309 -8.701782 1,225 169 153 -576
2019-08-22 17:37:10 GMT 41.333908 -8.703735 1,350 168 154 -896
2019-08-22 17:37:01 GMT 41.340866 -8.705566 1,500 169 157 -832
2019-08-22 17:36:55 GMT 41.344532 -8.706478 1,550 168 161 -832
2019-08-22 17:36:50 GMT 41.348862 -8.707601 1,625 168 170 -512
2019-08-22 17:36:46 GMT 41.352119 -8.708475 1,675 168 173 -640
2019-08-22 17:36:40 GMT 41.356915 -8.709724 1,750 168 173 -896
2019-08-22 17:36:34 GMT 41.361191 -8.710876 1,825 168 175 -960
2019-08-22 17:36:28 GMT 41.365585 -8.712036 1,900 168 180 -640
2019-08-22 17:36:18 GMT 41.374603 -8.714468 2,050 168 187 -1088
2019-08-22 17:36:07 GMT 41.384007 -8.716965 2,250 168 190 -896
2019-08-22 17:35:56 GMT 41.392807 -8.719376 2,375 168 190 -832
2019-08-22 17:35:45 GMT 41.402802 -8.722083 2,550 168 188 -832
2019-08-22 17:35:35 GMT 41.412220 -8.724614 2,700 168 187 -896
2019-08-22 17:35:25 GMT 41.420830 -8.726913 2,850 168 188 -896
2019-08-22 17:35:14 GMT 41.429764 -8.729199 3,025 169 195 -768
2019-08-22 17:35:03 GMT 41.439606 -8.731696 3,125 168 206 -704
2019-08-22 17:34:53 GMT 41.449173 -8.734193 3,275 169 218 -1024
2019-08-22 17:34:41 GMT 41.460678 -8.737452 3,550 164 228 -1600
2019-08-22 17:34:32 GMT 41.471062 -8.742179 3,775 155 232 -1280
2019-08-22 17:34:20 GMT 41.481674 -8.748950 3,925 156 232 -256
2019-08-22 17:34:10 GMT 41.492432 -8.753107 3,950 181 233 -192
2019-08-22 17:34:00 GMT 41.504608 -8.750361 3,975 207 237 0
2019-08-22 17:33:49 GMT 41.513809 -8.743120 4,000 221 238 -192
2019-08-22 17:33:38 GMT 41.522324 -8.731447 3,975 238 242 192
2019-08-22 17:33:33 GMT 41.525387 -8.724805 3,975 244 244 -64
2019-08-22 17:33:26 GMT 41.528275 -8.716118 3,975 250 245 64
2019-08-22 17:33:16 GMT 41.532257 -8.701609 3,950 251 251 128
2019-08-22 17:33:05 GMT 41.536606 -8.685504 3,925 251 264 -64
2019-08-22 17:32:55 GMT 41.541309 -8.668085 3,950 251 266 0
2019-08-22 17:32:44 GMT 41.545441 -8.652795 3,925 251 266 128
2019-08-22 17:32:34 GMT 41.552261 -8.627576 3,925 251 284 0
2019-08-22 17:32:23 GMT 41.554550 -8.619024 3,925 251 288 -256
2019-08-22 17:32:17 GMT 41.557182 -8.609193 3,950 251 290 -448
2019-08-22 17:32:08 GMT 41.561886 -8.591692 4,075 251 301 -448
2019-08-22 17:32:01 GMT 41.564575 -8.581571 4,125 251 304 -576
2019-08-22 17:31:55 GMT 41.567471 -8.570613 4,225 251 307 -1408
2019-08-22 17:31:48 GMT 41.570683 -8.558669 4,450 251 307 -2112
2019-08-22 17:31:44 GMT 41.572632 -8.551483 4,600 251 305 -2432
2019-08-22 17:31:34 GMT 41.577480 -8.533758 5,075 250 298 -3136
2019-08-22 17:31:25 GMT 41.581650 -8.518649 5,500 250 292 -2752
2019-08-22 17:31:15 GMT 41.586823 -8.500047 5,825 250 295 -512
2019-08-22 17:31:03 GMT 41.592144 -8.481062 5,925 250 305 -512
2019-08-22 17:30:55 GMT 41.596527 -8.465403 5,950 250 313 -448
2019-08-22 17:30:51 GMT 41.598007 -8.460048 5,975 250 313 -448
2019-08-22 17:30:46 GMT 41.600693 -8.450484 6,000 250 321 -64
2019-08-22 17:30:42 GMT 41.602570 -8.443632 6,000 250 326 0
2019-08-22 17:30:34 GMT 41.606762 -8.428622 5,975 251 334 0
2019-08-22 17:30:29 GMT 41.609413 -8.418849 5,975 251 342 192
2019-08-22 17:30:23 GMT 41.612640 -8.406851 5,950 251 352 0
2019-08-22 17:30:20 GMT 41.615112 -8.397612 5,950 251 358 128
2019-08-22 17:30:13 GMT 41.618584 -8.384485 5,950 251 364 256
2019-08-22 17:30:08 GMT 41.620960 -8.375351 5,975 251 365 0
2019-08-22 17:30:02 GMT 41.624359 -8.362384 6,000 252 367 -512
2019-08-22 17:29:59 GMT 41.626831 -8.352606 6,175 252 368 -1536
2019-08-22 17:29:47 GMT 41.632919 -8.328948 6,350 252 368 -2304
2019-08-22 17:29:38 GMT 41.637672 -8.310071 6,700 251 371 -1984
2019-08-22 17:29:28 GMT 41.643909 -8.286310 7,000 251 380 -1024
2019-08-22 17:29:16 GMT 41.650681 -8.260845 7,425 251 385 -2752
2019-08-22 17:29:12 GMT 41.653358 -8.250924 7,625 251 386 -2752
2019-08-22 17:29:07 GMT 41.656677 -8.238435 7,875 251 387 -2688
2019-08-22 17:29:01 GMT 41.659653 -8.227386 8,125 251 386 -3328
2019-08-22 17:28:56 GMT 41.662720 -8.215901 8,425 251 384 -3712
2019-08-22 17:28:52 GMT 41.664505 -8.209159 8,600 251 381 -3776
2019-08-22 17:28:45 GMT 41.669418 -8.190882 9,125 251 380 -3904
2019-08-22 17:28:38 GMT 41.672771 -8.178299 9,500 251 377 -4224
2019-08-22 17:28:34 GMT 41.675331 -8.168654 9,750 251 378 -3200
2019-08-22 17:28:29 GMT 41.678356 -8.157157 9,950 251 382 -1408
2019-08-22 17:28:24 GMT 41.681339 -8.145787 10,000 251 386 -64
2019-08-22 17:28:21 GMT 41.683105 -8.139017 10,000 251 386 64
2019-08-22 17:28:17 GMT 41.685333 -8.130569 10,000 251 386 0
2019-08-22 17:28:12 GMT 41.688133 -8.119855 10,000 251 386 64
2019-08-22 17:28:08 GMT 41.690552 -8.110719 10,000 251 386 0
2019-08-22 17:28:03 GMT 41.693954 -8.098074 10,000 251 385 -64
2019-08-22 17:27:57 GMT 41.697678 -8.083894 10,000 251 384 64
2019-08-22 17:27:53 GMT 41.700470 -8.073354 10,000 251 384 0
2019-08-22 17:27:48 GMT 41.702705 -8.064859 10,000 251 384 -64
2019-08-22 17:27:42 GMT 41.706337 -8.051126 10,000 251 384 0
2019-08-22 17:27:32 GMT 41.713226 -8.025002 10,000 251 383 0
2019-08-22 17:27:28 GMT 41.714676 -8.019520 10,000 251 383 0
2019-08-22 17:27:20 GMT 41.719090 -8.002837 10,000 251 383 0
2019-08-22 17:27:17 GMT 41.720673 -7.996769 10,000 251 384 -64
2019-08-22 17:27:11 GMT 41.724930 -7.980506 10,000 251 384 64
2019-08-22 17:27:07 GMT 41.726807 -7.973577 10,000 251 385 -64
2019-08-22 17:27:00 GMT 41.731247 -7.956723 10,000 251 385 -64
2019-08-22 17:26:56 GMT 41.733662 -7.947586 10,000 251 384 0
2019-08-22 17:26:50 GMT 41.737473 -7.933128 10,000 251 383 0
2019-08-22 17:26:45 GMT 41.740036 -7.923265 10,000 251 383 0
2019-08-22 17:26:39 GMT 41.743607 -7.909907 10,000 251 382 0
2019-08-22 17:26:34 GMT 41.746536 -7.898733 10,000 251 382 0
2019-08-22 17:26:28 GMT 41.749878 -7.885999 10,000 251 382 -64
2019-08-22 17:26:23 GMT 41.753075 -7.873876 10,000 251 381 64
2019-08-22 17:26:17 GMT 41.756287 -7.861529 10,000 251 381 -64
2019-08-22 17:26:12 GMT 41.758942 -7.851392 10,000 251 381 0
2019-08-22 17:26:06 GMT 41.762604 -7.837247 10,000 251 380 -64
2019-08-22 17:26:03 GMT 41.764668 -7.829356 10,000 251 380 0
2019-08-22 17:25:57 GMT 41.768623 -7.814281 10,000 251 379 64
2019-08-22 17:25:51 GMT 41.771137 -7.804764 10,000 251 379 0
2019-08-22 17:25:45 GMT 41.777096 -7.782153 10,000 251 380 0
2019-08-22 17:25:41 GMT 41.777096 -7.782153 10,000 251 381 -64
2019-08-22 17:25:36 GMT 41.781006 -7.767084 10,000 251 382 -64
2019-08-22 17:25:31 GMT 41.783157 -7.759094 10,000 251 382 -64
2019-08-22 17:25:24 GMT 41.787010 -7.744212 10,000 251 383 -64
2019-08-22 17:25:15 GMT 41.793320 -7.719893 10,000 252 384 -64
2019-08-22 17:25:10 GMT 41.795204 -7.712594 10,000 251 386 0
2019-08-22 17:25:03 GMT 41.799728 -7.695111 10,000 251 386 0
2019-08-22 17:24:57 GMT 41.802704 -7.683563 10,000 252 387 64
2019-08-22 17:24:53 GMT 41.805588 -7.672452 10,000 251 388 -64
2019-08-22 17:24:48 GMT 41.807961 -7.663283 10,000 251 388 0
2019-08-22 17:24:25 GMT 41.822437 -7.607266 9,975 251 389 64
2019-08-22 17:24:12 GMT 41.829281 -7.580822 10,050 251 389 -640
2019-08-22 17:23:59 GMT 41.836914 -7.551440 10,400 251 390 -2112
2019-08-22 17:23:54 GMT 41.840591 -7.537260 10,625 251 390 -2112
2019-08-22 17:23:44 GMT 41.846558 -7.514461 10,900 251 394 -1728
2019-08-22 17:23:41 GMT 41.847839 -7.509655 10,975 251 394 -1472
2019-08-22 17:23:38 GMT 41.849903 -7.501682 11,075 251 394 -1856
2019-08-22 17:23:33 GMT 41.853256 -7.488779 11,225 251 395 -1664
2019-08-22 17:23:21 GMT 41.859539 -7.464380 11,525 251 398 -1792
2019-08-22 17:23:11 GMT 41.866661 -7.437105 11,900 251 399 -1792
2019-08-22 17:23:01 GMT 41.872742 -7.413649 12,200 251 400 -2048
2019-08-22 17:22:50 GMT 41.878738 -7.390428 12,550 251 401 -1984
2019-08-22 17:22:40 GMT 41.885098 -7.365886 12,900 251 402 -2112
2019-08-22 17:22:28 GMT 41.891785 -7.340178 13,275 251 402 -2048
2019-08-22 17:22:16 GMT 41.899429 -7.310715 13,650 251 403 -1856
2019-08-22 17:22:00 GMT 41.909409 -7.272325 14,025 251 405 -1728
2019-08-22 17:21:54 GMT 41.913071 -7.258218 14,300 251 408 -1664
2019-08-22 17:21:51 GMT 41.914890 -7.251168 14,400 252 416 -1792
2019-08-22 17:21:44 GMT 41.919342 -7.234060 14,600 251 411 -1664
2019-08-22 17:21:33 GMT 41.926201 -7.207287 14,875 252 415 -1600
2019-08-22 17:21:22 GMT 41.932999 -7.180715 15,225 252 417 -1920
2019-08-22 17:21:12 GMT 41.939255 -7.156032 15,500 252 420 -1664
2019-08-22 17:21:02 GMT 41.945427 -7.131596 15,750 252 425 -1664
2019-08-22 17:20:51 GMT 41.951889 -7.105096 16,100 253 428 -1856
2019-08-22 17:20:41 GMT 41.958344 -7.078878 16,725 246 429 -2240
2019-08-22 17:20:30 GMT 41.966400 -7.051912 16,800 246 429 -2240
2019-08-22 17:20:20 GMT 41.975098 -7.028004 17,275 240 427 -3008
2019-08-22 17:20:10 GMT 41.986176 -7.003160 17,800 237 429 -3008
2019-08-22 17:19:59 GMT 41.997147 -6.980406 18,325 238 431 -2816
2019-08-22 17:19:49 GMT 42.009201 -6.955220 18,925 238 432 -3648
2019-08-22 17:19:38 GMT 42.019958 -6.932884 19,500 237 432 -2880
2019-08-22 17:19:28 GMT 42.031689 -6.908804 20,050 237 434 -3264
2019-08-22 17:19:16 GMT 42.043900 -6.883746 20,575 237 439 -2816
2019-08-22 17:19:06 GMT 42.055386 -6.860068 21,100 237 442 -3072
2019-08-22 17:18:56 GMT 42.067535 -6.835157 21,650 237 445 -3264
2019-08-22 17:18:45 GMT 42.079330 -6.810899 22,200 237 449 -2880
2019-08-22 17:18:35 GMT 42.091183 -6.786676 22,675 237 452 -3008
2019-08-22 17:18:23 GMT 42.104462 -6.759463 23,150 237 454 -3072
2019-08-22 17:18:14 GMT 42.116180 -6.735641 23,750 237 459 -3072
2019-08-22 17:18:02 GMT 42.128174 -6.711148 24,250 237 462 -3008
2019-08-22 17:17:51 GMT 42.141495 -6.683995 24,800 237 466 -2752
2019-08-22 17:17:42 GMT 42.155937 -6.654521 25,150 237 473 -1216
2019-08-22 17:17:30 GMT 42.166084 -6.633570 25,400 238 470 -1792
2019-08-22 17:17:20 GMT 42.178665 -6.607215 25,800 238 464 -2624
2019-08-22 17:17:11 GMT 42.189011 -6.585305 26,225 238 463 -3264
2019-08-22 17:17:08 GMT 42.193451 -6.575754 26,450 238 462 -3904
2019-08-22 17:17:00 GMT 42.201324 -6.558838 27,000 238 461 -4672
2019-08-22 17:16:50 GMT 42.212826 -6.534055 27,775 238 457 -4800
2019-08-22 17:16:39 GMT 42.226276 -6.505184 28,775 238 453 -4736
2019-08-22 17:16:28 GMT 42.236664 -6.482932 29,700 238 448 -4544
2019-08-22 17:16:20 GMT 42.246597 -6.461709 30,200 238 446 -4480
2019-08-22 17:16:17 GMT 42.248810 -6.456895 30,350 239 445 -4480
2019-08-22 17:16:07 GMT 42.259781 -6.433307 31,000 238 441 -4352
2019-08-22 17:15:59 GMT 42.272038 -6.407009 31,875 238 437 -4032
2019-08-22 17:15:49 GMT 42.283024 -6.383568 32,550 238 434 -3904
2019-08-22 17:15:38 GMT 42.291733 -6.365204 33,075 238 432 -3648
2019-08-22 17:15:34 GMT 42.295547 -6.357188 33,275 238 432 -3584
2019-08-22 17:15:27 GMT 42.304550 -6.338300 33,775 238 431 -3456
2019-08-22 17:15:23 GMT 42.307388 -6.332432 33,925 238 431 -3392
2019-08-22 17:15:17 GMT 42.315102 -6.316372 34,200 238 430 -3456
2019-08-22 17:15:14 GMT 42.317383 -6.311646 34,425 237 429 -3328
2019-08-22 17:15:07 GMT 42.326366 -6.292994 34,875 237 429 -3200
2019-08-22 17:15:03 GMT 42.329910 -6.285740 35,050 237 429 -3200
2019-08-22 17:14:55 GMT 42.337280 -6.270572 35,425 237 427 -3136
2019-08-22 17:14:52 GMT 42.341076 -6.262910 35,600 237 428 -3072
2019-08-22 17:14:45 GMT 42.348618 -6.247580 35,950 237 427 -3264
2019-08-22 17:14:42 GMT 42.352341 -6.240172 36,150 236 427 -3072
2019-08-22 17:14:35 GMT 42.360348 -6.224202 36,475 236 426 -3008
2019-08-22 17:14:31 GMT 42.363739 -6.217450 36,650 236 426 -3072
2019-08-22 17:14:24 GMT 42.372437 -6.200409 37,025 236 425 -2880
2019-08-22 17:14:21 GMT 42.376007 -6.193418 37,175 236 425 -2752
2019-08-22 17:14:13 GMT 42.384567 -6.176876 37,500 235 425 -2688
2019-08-22 17:14:10 GMT 42.387955 -6.170384 37,650 235 424 -2688
2019-08-22 17:14:03 GMT 42.395866 -6.155346 37,950 235 425 -2816
2019-08-22 17:13:59 GMT 42.400524 -6.146467 38,125 235 425 -2944
2019-08-22 17:13:54 GMT 42.411850 -6.125065 38,525 235 423 -2688
2019-08-22 17:13:49 GMT 42.411850 -6.125065 38,575 235 423 -2240
2019-08-22 17:13:41 GMT 42.421097 -6.107587 38,850 235 424 -1600
2019-08-22 17:13:37 GMT 42.425079 -6.100034 38,925 235 424 -1280
2019-08-22 17:13:30 GMT 42.433205 -6.084957 39,000 233 423 -128
2019-08-22 17:13:27 GMT 42.436798 -6.078561 39,000 231 423 -128
2019-08-22 17:13:21 GMT 42.452042 -6.056588 39,025 220 425 0
2019-08-22 17:13:16 GMT 42.452042 -6.056588 39,025 211 429 64
2019-08-22 17:13:09 GMT 42.462482 -6.046313 39,000 211 429 64
2019-08-22 17:13:06 GMT 42.468842 -6.041045 39,000 210 429 64
2019-08-22 17:12:59 GMT 42.479874 -6.032555 39,000 210 429 0
2019-08-22 17:12:55 GMT 42.487793 -6.026500 39,000 210 429 0
2019-08-22 17:12:48 GMT 42.498562 -6.018208 39,000 210 429 0
2019-08-22 17:12:44 GMT 42.507477 -6.011394 39,000 210 428 0
2019-08-22 17:12:33 GMT 42.524120 -5.998663 39,000 210 428 0
2019-08-22 17:12:24 GMT 42.542740 -5.984419 39,000 210 428 0
2019-08-22 17:12:17 GMT 42.552891 -5.976626 39,000 210 428 0
2019-08-22 17:12:12 GMT 42.560802 -5.970558 39,000 210 428 0
2019-08-22 17:12:02 GMT 42.580074 -5.955740 39,000 210 428 0
2019-08-22 17:11:57 GMT 42.587723 -5.949846 39,000 210 428 64
2019-08-22 17:11:51 GMT 42.597198 -5.942542 39,000 210 428 0
2019-08-22 17:11:46 GMT 42.608551 -5.933866 39,000 210 427 -64
2019-08-22 17:11:41 GMT 42.614227 -5.929496 39,000 210 427 0
2019-08-22 17:11:36 GMT 42.622765 -5.922972 39,000 210 428 0
2019-08-22 17:11:30 GMT 42.633751 -5.914541 39,000 210 427 0
2019-08-22 17:11:25 GMT 42.641968 -5.908272 39,000 210 427 0
2019-08-22 17:11:20 GMT 42.650894 -5.901406 39,000 210 428 0
2019-08-22 17:11:15 GMT 42.659588 -5.894740 39,000 210 428 0
2019-08-22 17:11:12 GMT 42.664490 -5.890982 39,000 210 427 0
2019-08-22 17:11:07 GMT 42.673038 -5.884456 39,000 210 427 0
2019-08-22 17:10:58 GMT 42.688065 -5.872879 39,000 210 427 0
2019-08-22 17:10:51 GMT 42.700878 -5.862995 39,000 210 428 0
2019-08-22 17:10:48 GMT 42.706043 -5.859034 39,000 210 428 0
2019-08-22 17:10:41 GMT 42.719639 -5.848559 39,000 210 428 0
2019-08-22 17:10:37 GMT 42.723923 -5.845174 39,000 210 428 0
2019-08-22 17:10:27 GMT 42.742401 -5.830869 39,000 210 428 0
2019-08-22 17:10:14 GMT 42.766563 -5.812151 39,000 210 428 0
2019-08-22 17:10:06 GMT 42.777039 -5.803975 39,000 210 428 64
2019-08-22 17:09:59 GMT 42.791470 -5.792733 39,000 210 429 0
2019-08-22 17:09:53 GMT 42.799805 -5.786237 39,000 210 429 0
2019-08-22 17:09:45 GMT 42.813538 -5.775487 39,000 210 428 -64
2019-08-22 17:09:35 GMT 42.830757 -5.761937 39,000 211 428 64
2019-08-22 17:09:25 GMT 42.848774 -5.747746 39,000 211 429 0
2019-08-22 17:09:14 GMT 42.867023 -5.733490 39,000 210 430 0
2019-08-22 17:09:01 GMT 42.890160 -5.715506 39,000 210 430 0
2019-08-22 17:08:51 GMT 42.907013 -5.702415 39,000 210 430 0
2019-08-22 17:08:46 GMT 42.915016 -5.696150 39,000 210 431 -64
2019-08-22 17:08:42 GMT 42.922466 -5.690329 39,000 210 431 -64
2019-08-22 17:08:38 GMT 42.930614 -5.684052 39,000 210 431 -64
2019-08-22 17:08:28 GMT 42.947479 -5.670862 39,000 210 432 0
2019-08-22 17:08:19 GMT 42.964550 -5.657567 39,000 210 432 0
2019-08-22 17:08:06 GMT 42.985825 -5.640956 39,000 210 432 0
2019-08-22 17:07:58 GMT 42.999371 -5.630362 39,000 210 432 0
2019-08-22 17:07:47 GMT 43.018085 -5.615649 39,000 210 433 0
2019-08-22 17:07:36 GMT 43.037216 -5.600673 39,000 210 433 0
2019-08-22 17:07:26 GMT 43.054443 -5.587202 39,000 210 434 0
2019-08-22 17:07:15 GMT 43.073761 -5.572030 39,000 210 434 0
2019-08-22 17:07:06 GMT 43.089588 -5.559605 39,000 210 434 0
2019-08-22 17:06:55 GMT 43.107883 -5.545218 39,000 211 435 0
2019-08-22 17:06:39 GMT 43.138050 -5.521480 39,000 210 436 0
2019-08-22 17:06:30 GMT 43.151779 -5.510666 39,000 210 436 0
2019-08-22 17:06:24 GMT 43.162163 -5.502516 39,000 210 436 0
2019-08-22 17:06:11 GMT 43.186203 -5.483519 39,000 211 436 0
2019-08-22 17:05:40 GMT 43.240265 -5.440915 39,000 210 437 0
2019-08-22 17:05:33 GMT 43.252533 -5.431206 39,000 210 438 0
2019-08-22 17:05:22 GMT 43.270248 -5.417282 39,000 211 437 0
2019-08-22 17:05:12 GMT 43.288101 -5.403166 39,000 211 437 0
2019-08-22 17:05:02 GMT 43.307190 -5.388091 39,000 211 437 0
2019-08-22 17:04:52 GMT 43.323807 -5.374933 39,000 211 437 0
2019-08-22 17:04:41 GMT 43.342091 -5.360478 39,000 211 436 0
2019-08-22 17:04:32 GMT 43.359081 -5.347072 39,000 210 436 0
2019-08-22 17:04:21 GMT 43.378372 -5.331754 39,000 210 436 0
2019-08-22 17:04:10 GMT 43.396362 -5.317511 39,000 211 436 0
2019-08-22 17:04:00 GMT 43.414124 -5.303331 39,000 211 436 0
2019-08-22 17:03:50 GMT 43.432114 -5.289023 39,000 211 436 0
2019-08-22 17:03:40 GMT 43.450424 -5.274459 39,000 211 436 0
2019-08-22 17:03:30 GMT 43.467079 -5.261209 39,000 211 435 0
2019-08-22 17:03:19 GMT 43.485561 -5.246495 39,000 211 435 0
2019-08-22 17:03:10 GMT 43.503857 -5.231846 39,000 211 435 0
2019-08-22 17:02:59 GMT 43.522198 -5.217263 39,000 211 435 0
2019-08-22 17:02:48 GMT 43.538910 -5.203923 39,000 211 435 0
2019-08-22 17:02:38 GMT 43.557903 -5.188751 39,000 211 435 0
2019-08-22 17:02:29 GMT 43.575500 -5.174691 39,000 211 435 0
2019-08-22 17:02:17 GMT 43.593937 -5.159912 39,000 211 435 -64
2019-08-22 17:02:13 GMT 43.602131 -5.153373 39,000 211 435 -64
2019-08-22 17:02:08 GMT 43.612106 -5.145370 39,000 211 435 0
2019-08-22 17:02:02 GMT 43.620987 -5.138280 39,000 211 435 0
2019-08-22 17:01:57 GMT 43.628769 -5.132020 39,000 211 435 0
2019-08-22 17:01:47 GMT 43.646542 -5.117732 39,000 211 434 -64
2019-08-22 17:01:41 GMT 43.655571 -5.110474 39,000 211 434 0
2019-08-22 17:01:36 GMT 43.664841 -5.103022 39,000 211 434 0
2019-08-22 17:01:26 GMT 43.682804 -5.088566 39,000 211 434 0
2019-08-22 17:01:15 GMT 43.701736 -5.073320 39,000 211 433 0
2019-08-22 17:01:05 GMT 43.719040 -5.059332 39,000 211 433 0
2019-08-22 17:00:57 GMT 43.733452 -5.047695 39,000 211 433 0
2019-08-22 17:00:54 GMT 43.736946 -5.044883 39,000 211 433 0
2019-08-22 17:00:47 GMT 43.750168 -5.034229 39,000 211 433 0
2019-08-22 17:00:42 GMT 43.759056 -5.027030 39,000 211 433 0
2019-08-22 17:00:34 GMT 43.772232 -5.016345 39,000 211 433 0
2019-08-22 17:00:23 GMT 43.791046 -5.001207 39,000 211 432 0
2019-08-22 17:00:20 GMT 43.796219 -4.997055 39,000 211 432 0
2019-08-22 17:00:08 GMT 43.818550 -4.979030 39,000 211 432 0
2019-08-22 16:59:57 GMT 43.835861 -4.965054 39,000 211 432 0
2019-08-22 16:59:53 GMT 43.842850 -4.959412 39,000 211 431 0
2019-08-22 16:59:42 GMT 43.861286 -4.944567 39,000 211 431 0
2019-08-22 16:59:34 GMT 43.875504 -4.933181 39,000 211 431 -64
2019-08-22 16:59:26 GMT 43.889969 -4.921556 39,000 210 430 0
2019-08-22 16:59:12 GMT 43.912632 -4.903499 39,000 210 430 0
2019-08-22 16:59:09 GMT 43.918125 -4.899052 39,000 210 430 0
2019-08-22 16:59:03 GMT 43.928192 -4.891024 39,000 211 430 0
2019-08-22 16:58:56 GMT 43.940331 -4.881330 39,000 211 429 0
2019-08-22 16:58:52 GMT 43.948792 -4.874417 39,000 211 430 0
2019-08-22 16:58:46 GMT 43.957275 -4.867532 39,000 211 429 0
2019-08-22 16:58:42 GMT 43.966026 -4.860469 39,000 211 429 0
2019-08-22 16:58:36 GMT 43.975708 -4.852572 39,000 211 430 0
2019-08-22 16:58:30 GMT 43.985138 -4.844907 39,000 211 428 0
2019-08-22 16:58:25 GMT 43.994705 -4.837114 39,000 211 429 0
2019-08-22 16:58:22 GMT 44.001129 -4.831892 39,000 211 429 0
2019-08-22 16:58:11 GMT 44.018398 -4.817832 39,000 211 428 0
2019-08-22 16:58:00 GMT 44.039070 -4.801025 39,000 211 429 0
2019-08-22 16:57:49 GMT 44.056274 -4.786973 39,000 211 429 0
2019-08-22 16:57:39 GMT 44.073097 -4.773298 39,000 211 429 0
2019-08-22 16:57:28 GMT 44.093719 -4.756441 39,000 211 429 0
2019-08-22 16:57:17 GMT 44.111481 -4.741942 39,000 211 430 0
2019-08-22 16:57:03 GMT 44.134174 -4.723402 39,000 211 430 0
2019-08-22 16:56:56 GMT 44.147907 -4.712219 39,000 211 430 0
2019-08-22 16:56:53 GMT 44.151493 -4.709276 39,000 211 430 0
2019-08-22 16:56:47 GMT 44.161736 -4.700841 39,000 211 430 0
2019-08-22 16:56:41 GMT 44.171837 -4.692535 39,000 211 430 0
2019-08-22 16:56:34 GMT 44.184032 -4.682595 39,000 211 430 0
2019-08-22 16:56:26 GMT 44.198685 -4.670563 39,000 211 430 0
2019-08-22 16:56:15 GMT 44.215988 -4.656307 39,000 211 430 0
2019-08-22 16:56:09 GMT 44.226162 -4.647954 39,000 211 430 0
2019-08-22 16:55:58 GMT 44.245388 -4.632211 39,000 211 431 0
2019-08-22 16:55:46 GMT 44.266113 -4.615239 39,000 211 431 0
2019-08-22 16:55:37 GMT 44.281219 -4.602814 39,000 211 432 0
2019-08-22 16:55:22 GMT 44.307396 -4.581232 39,000 211 432 0
2019-08-22 16:54:54 GMT 44.356228 -4.540837 39,000 211 432 0
2019-08-22 16:54:42 GMT 44.376068 -4.524340 39,000 211 433 0
2019-08-22 16:54:32 GMT 44.394032 -4.509419 39,000 211 433 0
2019-08-22 16:54:22 GMT 44.410507 -4.495686 39,000 211 433 0
2019-08-22 16:54:10 GMT 44.430481 -4.479139 39,000 211 433 0
2019-08-22 16:53:58 GMT 44.452148 -4.461234 39,000 211 433 0
2019-08-22 16:53:46 GMT 44.472797 -4.444238 39,000 211 433 -64
2019-08-22 16:53:37 GMT 44.487972 -4.431778 39,000 211 433 0
2019-08-22 16:53:22 GMT 44.514175 -4.410357 39,000 211 433 0
2019-08-22 16:53:14 GMT 44.528660 -4.398618 39,000 211 433 64
2019-08-22 16:52:56 GMT 44.559540 -4.373605 38,775 211 432 1152
2019-08-22 16:52:52 GMT 44.566551 -4.367936 38,725 211 432 1024
2019-08-22 16:52:35 GMT 44.595291 -4.342477 38,425 215 431 1088
2019-08-22 16:52:08 GMT 44.637680 -4.295589 37,875 219 432 1216
2019-08-22 16:52:03 GMT 44.645599 -4.286812 37,750 219 433 1280
2019-08-22 16:51:52 GMT 44.662674 -4.267862 37,525 219 434 1408
2019-08-22 16:51:35 GMT 44.688892 -4.238780 37,150 219 435 1344
2019-08-22 16:51:30 GMT 44.697052 -4.229802 37,100 219 435 1280
2019-08-22 16:51:22 GMT 44.709412 -4.216134 36,850 219 437 1408
2019-08-22 16:51:06 GMT 44.734680 -4.188276 36,475 219 438 1408
2019-08-22 16:50:49 GMT 44.762074 -4.158124 36,075 219 439 1472
2019-08-22 16:50:34 GMT 44.785442 -4.132467 35,700 218 440 1472
2019-08-22 16:50:27 GMT 44.796753 -4.120069 35,550 219 441 1408
2019-08-22 16:50:15 GMT 44.815792 -4.099106 35,250 219 441 1472
2019-08-22 16:50:05 GMT 44.832180 -4.081086 35,000 219 441 1472
2019-08-22 16:49:55 GMT 44.849167 -4.062391 34,725 219 443 1664
2019-08-22 16:49:42 GMT 44.869419 -4.040155 34,375 219 443 1728
2019-08-22 16:49:31 GMT 44.887573 -4.020081 34,050 219 444 1664
2019-08-22 16:49:20 GMT 44.905220 -4.000430 33,750 219 446 1856
2019-08-22 16:49:09 GMT 44.922913 -3.980647 33,400 219 447 1792
2019-08-22 16:49:00 GMT 44.937790 -3.963972 33,175 219 448 1344
2019-08-22 16:48:49 GMT 44.955498 -3.944159 33,075 219 442 256
2019-08-22 16:48:37 GMT 44.974091 -3.924081 33,000 215 441 -64
2019-08-22 16:48:24 GMT 44.996933 -3.902697 33,000 214 443 0
2019-08-22 16:48:14 GMT 45.014053 -3.886871 33,000 214 443 0
2019-08-22 16:48:03 GMT 45.032913 -3.869411 33,000 214 443 0
2019-08-22 16:47:52 GMT 45.051910 -3.851820 33,000 214 443 0
2019-08-22 16:47:39 GMT 45.073334 -3.831940 33,000 214 444 0
2019-08-22 16:47:28 GMT 45.092331 -3.814348 33,000 214 444 0
2019-08-22 16:47:17 GMT 45.112015 -3.796038 33,000 214 444 0
2019-08-22 16:47:05 GMT 45.131699 -3.777727 33,000 214 443 0
2019-08-22 16:46:54 GMT 45.151806 -3.759066 33,000 214 443 0
2019-08-22 16:46:43 GMT 45.170288 -3.741850 33,000 214 443 0
2019-08-22 16:46:31 GMT 45.191006 -3.722557 33,000 214 443 0
2019-08-22 16:46:20 GMT 45.209995 -3.704871 33,000 214 443 0
2019-08-22 16:46:07 GMT 45.232086 -3.684213 33,000 214 443 0
2019-08-22 16:45:57 GMT 45.248840 -3.668583 33,000 214 442 0
2019-08-22 16:45:46 GMT 45.267426 -3.651188 33,000 214 442 0
2019-08-22 16:45:34 GMT 45.287888 -3.632028 33,000 214 442 0
2019-08-22 16:45:24 GMT 45.305649 -3.615417 33,000 214 442 0
2019-08-22 16:45:10 GMT 45.328053 -3.594405 33,000 214 442 0
2019-08-22 16:45:00 GMT 45.344971 -3.578535 33,000 214 441 0
2019-08-22 16:44:50 GMT 45.362083 -3.562451 33,000 214 441 0
2019-08-22 16:44:37 GMT 45.384056 -3.541818 33,000 214 441 0
2019-08-22 16:44:20 GMT 45.413292 -3.514352 33,000 214 441 0
2019-08-22 16:44:14 GMT 45.423347 -3.504907 33,000 214 441 0
2019-08-22 16:44:02 GMT 45.443874 -3.485480 33,000 214 441 0
2019-08-22 16:43:54 GMT 45.457397 -3.472726 33,000 214 441 0
2019-08-22 16:43:43 GMT 45.476303 -3.454939 33,000 214 442 0
2019-08-22 16:43:32 GMT 45.496033 -3.436301 33,000 214 442 0
2019-08-22 16:43:20 GMT 45.516357 -3.417150 33,000 214 442 0
2019-08-22 16:43:17 GMT 45.522503 -3.411322 33,000 214 442 0
2019-08-22 16:43:09 GMT 45.534557 -3.399934 33,000 214 442 0
2019-08-22 16:43:06 GMT 45.539867 -3.394909 33,000 214 442 0
2019-08-22 16:42:57 GMT 45.555183 -3.380424 33,000 214 442 0
2019-08-22 16:42:47 GMT 45.571793 -3.364764 33,000 214 442 0
2019-08-22 16:42:43 GMT 45.578876 -3.358040 33,000 214 442 0
2019-08-22 16:42:37 GMT 45.588608 -3.348839 33,000 214 442 0
2019-08-22 16:42:26 GMT 45.608532 -3.329956 33,000 214 442 0
2019-08-22 16:42:15 GMT 45.626495 -3.312914 33,000 214 443 0
2019-08-22 16:42:04 GMT 45.644470 -3.295898 33,000 214 443 0
2019-08-22 16:41:51 GMT 45.666813 -3.274681 33,000 214 443 0
2019-08-22 16:41:42 GMT 45.681946 -3.260262 33,000 214 443 0
2019-08-22 16:41:34 GMT 45.695770 -3.247147 33,000 214 443 0
2019-08-22 16:41:31 GMT 45.701542 -3.241653 33,000 214 443 0
2019-08-22 16:41:20 GMT 45.720814 -3.223320 33,000 214 442 0
2019-08-22 16:41:10 GMT 45.737549 -3.207338 33,000 214 443 0
2019-08-22 16:40:59 GMT 45.756821 -3.188983 33,000 214 443 0
2019-08-22 16:40:46 GMT 45.778107 -3.168618 33,000 214 444 0
2019-08-22 16:40:36 GMT 45.795822 -3.151669 33,000 214 444 0
2019-08-22 16:40:28 GMT 45.810654 -3.137468 33,000 214 444 0
2019-08-22 16:40:25 GMT 45.814041 -3.134185 33,000 214 444 0
2019-08-22 16:40:14 GMT 45.832809 -3.116232 33,000 214 444 0
2019-08-22 16:40:06 GMT 45.846085 -3.103437 33,000 214 444 0
2019-08-22 16:40:00 GMT 45.856476 -3.093455 33,000 214 444 0
2019-08-22 16:39:51 GMT 45.871857 -3.078717 33,000 214 444 0
2019-08-22 16:39:46 GMT 45.880371 -3.070545 33,000 214 444 0
2019-08-22 16:39:39 GMT 45.892406 -3.059006 33,000 214 444 0
2019-08-22 16:39:29 GMT 45.909306 -3.042732 33,000 214 444 0
2019-08-22 16:39:18 GMT 45.927368 -3.025291 33,000 214 444 0
2019-08-22 16:39:12 GMT 45.937794 -3.015266 33,000 214 444 0
2019-08-22 16:39:07 GMT 45.947197 -3.006271 33,000 214 444 0
2019-08-22 16:38:59 GMT 45.959953 -2.993912 33,000 214 444 0
2019-08-22 16:38:56 GMT 45.966019 -2.988080 33,000 214 444 0
2019-08-22 16:38:45 GMT 45.984787 -2.969993 33,000 214 444 0
2019-08-22 16:38:40 GMT 45.994450 -2.960678 33,000 214 444 0
2019-08-22 16:38:31 GMT 46.009438 -2.946190 33,000 214 444 0
2019-08-22 16:38:23 GMT 46.022053 -2.934036 33,000 215 445 0
2019-08-22 16:38:12 GMT 46.040909 -2.915798 33,000 214 444 0
2019-08-22 16:37:59 GMT 46.062321 -2.895103 33,000 215 445 0
2019-08-22 16:37:49 GMT 46.080383 -2.877594 33,000 215 445 0
2019-08-22 16:37:38 GMT 46.098492 -2.860085 33,000 215 445 0
2019-08-22 16:37:33 GMT 46.107849 -2.850952 33,000 215 445 0
2019-08-22 16:37:27 GMT 46.117065 -2.842026 33,000 215 445 0
2019-08-22 16:37:21 GMT 46.130009 -2.829460 33,000 215 445 0
2019-08-22 16:37:16 GMT 46.136398 -2.823218 33,000 215 445 0
2019-08-22 16:37:05 GMT 46.155750 -2.804466 33,000 215 445 0
2019-08-22 16:36:55 GMT 46.172791 -2.787918 33,000 215 445 0
2019-08-22 16:36:52 GMT 46.177139 -2.783694 33,000 215 445 0
2019-08-22 16:36:43 GMT 46.194489 -2.766746 33,000 215 444 0
2019-08-22 16:36:32 GMT 46.211571 -2.750084 33,000 215 444 64
2019-08-22 16:36:25 GMT 46.222183 -2.739682 33,000 215 444 0
2019-08-22 16:36:19 GMT 46.233494 -2.728661 33,000 215 444 0
2019-08-22 16:36:10 GMT 46.249138 -2.713348 33,000 215 444 0
2019-08-22 16:36:01 GMT 46.263893 -2.698929 33,000 215 444 0
2019-08-22 16:35:58 GMT 46.269424 -2.693526 33,000 215 444 0
2019-08-22 16:35:51 GMT 46.281723 -2.681488 33,000 215 444 0
2019-08-22 16:35:45 GMT 46.291306 -2.672089 33,000 215 444 0
2019-08-22 16:35:39 GMT 46.300575 -2.663017 33,000 215 444 0
2019-08-22 16:35:36 GMT 46.305836 -2.657867 33,000 215 444 0
2019-08-22 16:35:25 GMT 46.325272 -2.638795 33,000 215 444 0
2019-08-22 16:35:19 GMT 46.334560 -2.629715 33,000 215 444 0
2019-08-22 16:35:14 GMT 46.342892 -2.621544 33,000 215 444 0
2019-08-22 16:35:11 GMT 46.350014 -2.614540 33,000 215 444 0
2019-08-22 16:35:03 GMT 46.361885 -2.602867 33,000 215 444 0
2019-08-22 16:35:00 GMT 46.367935 -2.596994 33,000 215 444 0
2019-08-22 16:34:51 GMT 46.389862 -2.575490 33,000 215 444 0
2019-08-22 16:34:41 GMT 46.405411 -2.560226 33,000 215 444 0
2019-08-22 16:34:29 GMT 46.420914 -2.545052 33,000 215 444 0
2019-08-22 16:34:20 GMT 46.437790 -2.528396 33,000 215 444 64
2019-08-22 16:34:08 GMT 46.456387 -2.510101 33,000 215 444 0
2019-08-22 16:34:02 GMT 46.465420 -2.501244 33,000 215 444 0
2019-08-22 16:33:56 GMT 46.475876 -2.490949 33,000 215 444 0
2019-08-22 16:33:51 GMT 46.484829 -2.482155 33,000 215 444 0
2019-08-22 16:33:46 GMT 46.493729 -2.473331 33,000 215 444 0
2019-08-22 16:33:42 GMT 46.500687 -2.466498 33,000 215 446 0
2019-08-22 16:33:37 GMT 46.508698 -2.458660 33,000 215 444 0
2019-08-22 16:33:34 GMT 46.513042 -2.454346 33,000 215 446 0
2019-08-22 16:33:30 GMT 46.519730 -2.447741 33,000 215 444 0
2019-08-22 16:33:27 GMT 46.525612 -2.441986 33,000 215 444 0
2019-08-22 16:33:24 GMT 46.531521 -2.436081 33,000 215 445 0
2019-08-22 16:33:17 GMT 46.551960 -2.415962 33,000 215 445 0
2019-08-22 16:33:11 GMT 46.551960 -2.415962 33,000 215 445 0
2019-08-22 16:33:07 GMT 46.559326 -2.408685 33,000 215 445 0
2019-08-22 16:33:02 GMT 46.568161 -2.399910 33,000 215 445 0
2019-08-22 16:32:59 GMT 46.574863 -2.393303 33,000 215 445 0
2019-08-22 16:32:54 GMT 46.582626 -2.385641 33,000 215 445 0
2019-08-22 16:32:46 GMT 46.594788 -2.373596 33,000 215 445 0
2019-08-22 16:32:43 GMT 46.599792 -2.368626 33,000 215 445 0
2019-08-22 16:32:39 GMT 46.607117 -2.361391 33,000 215 446 0
2019-08-22 16:32:36 GMT 46.611511 -2.357036 33,000 215 446 0
2019-08-22 16:32:26 GMT 46.630737 -2.337944 33,000 215 446 0
2019-08-22 16:32:17 GMT 46.654469 -2.314339 33,000 215 446 0
2019-08-22 16:32:11 GMT 46.654469 -2.314339 33,000 215 446 0
2019-08-22 16:32:04 GMT 46.668182 -2.300765 33,000 215 446 0
2019-08-22 16:32:01 GMT 46.677929 -2.290993 33,000 215 446 0
2019-08-22 16:31:53 GMT 46.685425 -2.283577 33,000 215 446 0
2019-08-22 16:31:50 GMT 46.691383 -2.277672 33,000 215 446 0
2019-08-22 16:31:43 GMT 46.703064 -2.265997 33,000 215 446 0
2019-08-22 16:31:37 GMT 46.712845 -2.256317 33,000 215 446 0
2019-08-22 16:31:34 GMT 46.718102 -2.251030 33,000 215 446 0
2019-08-22 16:31:29 GMT 46.726181 -2.242953 33,000 215 446 0
2019-08-22 16:31:25 GMT 46.733688 -2.235517 33,000 215 446 0
2019-08-22 16:31:20 GMT 46.742264 -2.226929 33,000 215 446 0
2019-08-22 16:31:13 GMT 46.761063 -2.208118 33,000 215 447 0
2019-08-22 16:31:09 GMT 46.761063 -2.208118 33,000 215 447 0
2019-08-22 16:31:05 GMT 46.767700 -2.201486 33,000 215 447 0
2019-08-22 16:31:02 GMT 46.772755 -2.196442 33,000 215 447 0
2019-08-22 16:30:58 GMT 46.778458 -2.190768 33,000 215 447 0
2019-08-22 16:30:51 GMT 46.791798 -2.177422 33,000 215 446 0
2019-08-22 16:30:47 GMT 46.797684 -2.171542 33,000 215 446 0
2019-08-22 16:30:40 GMT 46.809673 -2.159500 33,000 215 447 0
2019-08-22 16:30:37 GMT 46.815033 -2.154124 33,000 215 447 0
2019-08-22 16:30:34 GMT 46.820705 -2.148445 33,000 215 447 0
2019-08-22 16:30:30 GMT 46.827438 -2.141664 33,000 215 447 0
2019-08-22 16:30:25 GMT 46.835907 -2.133156 33,000 215 447 0
2019-08-22 16:30:22 GMT 46.840164 -2.128869 33,000 215 447 0
2019-08-22 16:30:17 GMT 46.849102 -2.119881 33,000 215 447 0
2019-08-22 16:30:13 GMT 46.855637 -2.113260 33,000 215 447 0
2019-08-22 16:30:09 GMT 46.862507 -2.106354 33,000 215 447 0
2019-08-22 16:30:01 GMT 46.875263 -2.093459 33,000 215 447 0
2019-08-22 16:29:57 GMT 46.882759 -2.085923 33,000 215 447 0
2019-08-22 16:29:53 GMT 46.889744 -2.078881 33,000 215 448 0
2019-08-22 16:29:44 GMT 46.904617 -2.063850 33,000 215 448 0
2019-08-22 16:29:40 GMT 46.911530 -2.056908 33,000 215 448 0
2019-08-22 16:29:36 GMT 46.917755 -2.050667 33,000 215 448 0
2019-08-22 16:29:32 GMT 46.926006 -2.042330 33,000 215 448 0
2019-08-22 16:29:29 GMT 46.930344 -2.037964 33,000 215 449 0
2019-08-22 16:29:26 GMT 46.936619 -2.031696 33,000 215 449 0
2019-08-22 16:29:23 GMT 46.942066 -2.026203 33,000 215 449 0
2019-08-22 16:29:18 GMT 46.948723 -2.019512 33,000 215 449 0
2019-08-22 16:29:13 GMT 46.957291 -2.010921 33,000 215 449 0
2019-08-22 16:29:09 GMT 46.964218 -2.003906 33,000 215 449 0
2019-08-22 16:29:04 GMT 46.977905 -1.990105 33,000 215 450 0
2019-08-22 16:29:01 GMT 46.977905 -1.990105 33,000 215 450 0
2019-08-22 16:28:58 GMT 46.983032 -1.984955 33,000 215 450 0
2019-08-22 16:28:54 GMT 46.989780 -1.978102 33,000 215 450 0
2019-08-22 16:28:51 GMT 46.994843 -1.973007 33,000 215 450 0
2019-08-22 16:28:44 GMT 47.007984 -1.959792 33,000 215 451 0
2019-08-22 16:28:41 GMT 47.015152 -1.952538 33,000 215 451 0
2019-08-22 16:28:31 GMT 47.030468 -1.937115 33,000 215 452 0
2019-08-22 16:28:24 GMT 47.043777 -1.923637 33,000 215 453 0
2019-08-22 16:28:21 GMT 47.048264 -1.919174 33,000 215 452 0
2019-08-22 16:28:10 GMT 47.065109 -1.902077 33,000 215 452 64
2019-08-22 16:28:00 GMT 47.082886 -1.884085 33,000 215 453 0
2019-08-22 16:27:53 GMT 47.095047 -1.871796 33,000 215 453 0
2019-08-22 16:27:50 GMT 47.100807 -1.865915 33,000 215 453 0
2019-08-22 16:27:45 GMT 47.109749 -1.856830 33,000 215 454 0
2019-08-22 16:27:40 GMT 47.117847 -1.848591 33,000 215 454 0
2019-08-22 16:27:36 GMT 47.124737 -1.841618 33,000 215 454 0
2019-08-22 16:27:32 GMT 47.131714 -1.834511 33,000 215 454 -64
2019-08-22 16:27:29 GMT 47.136284 -1.829857 33,000 215 454 -64
2019-08-22 16:27:26 GMT 47.140797 -1.825280 33,000 215 454 0
2019-08-22 16:27:23 GMT 47.146477 -1.819505 33,000 215 454 0
2019-08-22 16:27:19 GMT 47.154205 -1.811547 33,000 215 454 -64
2019-08-22 16:27:16 GMT 47.158859 -1.806828 31,900 215 454 -64
2019-08-22 16:27:12 GMT 47.166046 -1.799492 32,900 215 454 0
2019-08-22 16:27:08 GMT 47.171906 -1.793518 32,975 215 454 512
2019-08-22 16:27:02 GMT 47.185581 -1.779503 32,900 215 453 1664
2019-08-22 16:26:59 GMT 47.189865 -1.775137 32,850 215 453 1600
2019-08-22 16:26:54 GMT 47.197037 -1.767838 32,725 215 453 1664
2019-08-22 16:26:51 GMT 47.202026 -1.762756 32,625 215 453 1600
2019-08-22 16:26:46 GMT 47.212326 -1.752182 32,475 215 453 1600
2019-08-22 16:26:43 GMT 47.215698 -1.748798 32,425 215 453 1600
2019-08-22 16:26:40 GMT 47.220867 -1.743516 32,300 215 453 1664
2019-08-22 16:26:37 GMT 47.226173 -1.738093 32,300 215 453 1664
2019-08-22 16:26:32 GMT 47.234528 -1.729523 32,125 215 453 1664
2019-08-22 16:26:28 GMT 47.242653 -1.721191 32,025 215 453 1728
2019-08-22 16:26:24 GMT 47.247940 -1.715790 31,900 215 453 1792
2019-08-22 16:26:21 GMT 47.254013 -1.709571 30,800 215 457 1792
2019-08-22 16:26:15 GMT 47.264671 -1.698655 31,600 215 454 1920
2019-08-22 16:26:08 GMT 47.276218 -1.686824 31,375 215 455 1920
2019-08-22 16:26:05 GMT 47.280548 -1.682387 31,325 215 455 1920
2019-08-22 16:26:01 GMT 47.287903 -1.674934 31,050 215 455 1984
2019-08-22 16:25:58 GMT 47.292976 -1.669711 31,075 215 455 1984
2019-08-22 16:25:55 GMT 47.298111 -1.664497 30,975 215 456 1920
2019-08-22 16:25:52 GMT 47.304054 -1.658372 30,875 215 456 1920
2019-08-22 16:25:48 GMT 47.312119 -1.650146 30,725 215 456 1856
2019-08-22 16:25:45 GMT 47.316208 -1.645977 30,650 215 456 1856
2019-08-22 16:25:42 GMT 47.321320 -1.640739 30,550 215 457 1920
2019-08-22 16:25:37 GMT 47.329285 -1.632568 30,350 215 457 1792
2019-08-22 16:25:34 GMT 47.335991 -1.625765 29,775 215 453 384
2019-08-22 16:25:29 GMT 47.342602 -1.619004 30,175 215 457 1792
2019-08-22 16:25:24 GMT 47.358707 -1.602455 29,900 215 438 0
2019-08-22 16:25:21 GMT 47.358707 -1.602455 29,900 215 457 1792
2019-08-22 16:25:17 GMT 47.365082 -1.595970 29,775 215 457 1792
2019-08-22 16:25:10 GMT 47.375839 -1.584984 29,600 215 457 1728
2019-08-22 16:25:07 GMT 47.383568 -1.577101 29,475 215 457 1920
2019-08-22 16:25:01 GMT 47.392040 -1.568369 29,200 215 453 384
2019-08-22 16:24:58 GMT 47.401657 -1.558548 29,200 215 456 960
2019-08-22 16:24:51 GMT 47.410057 -1.549917 29,150 215 453 384
2019-08-22 16:24:47 GMT 47.420528 -1.539213 29,125 215 449 320
2019-08-22 16:24:40 GMT 47.427383 -1.532112 29,050 215 443 256
2019-08-22 16:24:36 GMT 47.435486 -1.523804 29,075 216 440 704
2019-08-22 16:24:27 GMT 47.451904 -1.506888 29,000 215 439 384
2019-08-22 16:24:24 GMT 47.455490 -1.503136 29,000 215 438 0
2019-08-22 16:24:21 GMT 47.467503 -1.490760 29,000 215 438 0
2019-08-22 16:24:16 GMT 47.467503 -1.490760 29,000 215 438 0
2019-08-22 16:24:13 GMT 47.475220 -1.482811 29,000 216 438 0
2019-08-22 16:24:07 GMT 47.482956 -1.474844 29,000 216 438 0
2019-08-22 16:24:04 GMT 47.488174 -1.469421 29,000 216 438 0
2019-08-22 16:24:01 GMT 47.492409 -1.465055 29,000 216 439 0
2019-08-22 16:23:57 GMT 47.499115 -1.458092 29,000 216 439 0
2019-08-22 16:23:54 GMT 47.504242 -1.452736 29,000 216 439 0
2019-08-22 16:23:51 GMT 47.510193 -1.446487 29,000 216 439 0
2019-08-22 16:23:46 GMT 47.518894 -1.437448 29,000 216 439 0
2019-08-22 16:23:43 GMT 47.522324 -1.433922 29,000 216 439 0
2019-08-22 16:23:39 GMT 47.530022 -1.425899 29,000 216 438 0
2019-08-22 16:23:33 GMT 47.540405 -1.415176 29,000 215 439 0
2019-08-22 16:23:29 GMT 47.546501 -1.408856 29,000 216 440 0
2019-08-22 16:23:26 GMT 47.552856 -1.402267 29,000 216 440 0
2019-08-22 16:23:22 GMT 47.557625 -1.397306 29,000 216 440 0
2019-08-22 16:23:19 GMT 47.564346 -1.390320 29,000 216 440 0
2019-08-22 16:23:14 GMT 47.576340 -1.377892 29,000 216 440 0
2019-08-22 16:23:11 GMT 47.576340 -1.377892 29,000 216 440 0
2019-08-22 16:23:07 GMT 47.583557 -1.370333 29,000 216 440 0
2019-08-22 16:23:03 GMT 47.588608 -1.365051 29,000 216 440 0
2019-08-22 16:22:56 GMT 47.601665 -1.351530 29,000 216 440 0
2019-08-22 16:22:51 GMT 47.609673 -1.343219 29,000 216 440 0
2019-08-22 16:22:48 GMT 47.615864 -1.336811 29,000 215 441 0
2019-08-22 16:22:41 GMT 47.626465 -1.325844 29,000 217 441 0
2019-08-22 16:22:35 GMT 47.640488 -1.310049 29,000 219 441 0
2019-08-22 16:22:29 GMT 47.644958 -1.304626 29,000 221 440 0
2019-08-22 16:22:26 GMT 47.649582 -1.298721 29,000 222 440 0
2019-08-22 16:22:23 GMT 47.655579 -1.290688 29,000 224 439 0
2019-08-22 16:22:18 GMT 47.661758 -1.281967 29,000 225 439 0
2019-08-22 16:22:14 GMT 47.668167 -1.272354 29,000 228 438 0
2019-08-22 16:22:11 GMT 47.671646 -1.266861 29,000 229 439 0
2019-08-22 16:22:07 GMT 47.677139 -1.257729 29,000 231 438 0
2019-08-22 16:22:03 GMT 47.681782 -1.249554 29,000 233 437 0
2019-08-22 16:22:00 GMT 47.687119 -1.239601 29,000 234 437 0
2019-08-22 16:21:55 GMT 47.693207 -1.227310 29,000 235 437 0
2019-08-22 16:21:51 GMT 47.697376 -1.218637 29,000 235 437 0
2019-08-22 16:21:48 GMT 47.700912 -1.211384 29,000 235 437 0
2019-08-22 16:21:44 GMT 47.705200 -1.202522 29,000 235 437 0
2019-08-22 16:21:41 GMT 47.708588 -1.195450 29,000 235 437 0
2019-08-22 16:21:38 GMT 47.711563 -1.189339 29,000 235 437 0
2019-08-22 16:21:35 GMT 47.718788 -1.174410 29,000 235 437 0
2019-08-22 16:21:32 GMT 47.718788 -1.174410 29,000 235 437 0
2019-08-22 16:21:29 GMT 47.723259 -1.165114 29,000 235 437 0
2019-08-22 16:21:26 GMT 47.725662 -1.160156 29,000 235 437 0
2019-08-22 16:21:23 GMT 47.729683 -1.151733 29,000 235 436 0
2019-08-22 16:21:20 GMT 47.738388 -1.133775 29,000 235 436 0
2019-08-22 16:21:16 GMT 47.738388 -1.133775 29,000 235 437 0
2019-08-22 16:21:11 GMT 47.744160 -1.121803 29,000 235 437 0
2019-08-22 16:21:06 GMT 47.750198 -1.109276 29,000 235 437 0
2019-08-22 16:21:03 GMT 47.753860 -1.101723 29,000 235 437 0
2019-08-22 16:20:59 GMT 47.766174 -1.076180 29,000 235 437 0
2019-08-22 16:20:53 GMT 47.766174 -1.076180 29,000 235 437 0
2019-08-22 16:20:50 GMT 47.774551 -1.058876 29,000 235 436 0
2019-08-22 16:20:45 GMT 47.774551 -1.058876 29,000 235 437 0
2019-08-22 16:20:42 GMT 47.781693 -1.043976 29,000 235 437 0
2019-08-22 16:20:33 GMT 47.788525 -1.029757 29,000 235 437 0
2019-08-22 16:20:30 GMT 47.793411 -1.019600 29,000 235 437 0
2019-08-22 16:20:23 GMT 47.800323 -1.005249 29,000 235 437 0
2019-08-22 16:20:19 GMT 47.804958 -0.995601 29,000 235 436 0
2019-08-22 16:20:11 GMT 47.815063 -0.974487 29,000 235 436 0
2019-08-22 16:20:08 GMT 47.824463 -0.954895 29,000 235 436 0
2019-08-22 16:20:02 GMT 47.824463 -0.954895 29,000 235 436 0
2019-08-22 16:19:58 GMT 47.829208 -0.944962 29,000 235 436 0
2019-08-22 16:19:55 GMT 47.832870 -0.937408 29,000 235 437 0
2019-08-22 16:19:51 GMT 47.837311 -0.928139 29,000 235 437 0
2019-08-22 16:19:48 GMT 47.842525 -0.917288 29,000 235 437 0
2019-08-22 16:19:42 GMT 47.847977 -0.905960 29,000 235 437 0
2019-08-22 16:19:38 GMT 47.853928 -0.893532 29,000 235 437 0
2019-08-22 16:19:30 GMT 47.863148 -0.874329 29,000 235 437 0
2019-08-22 16:19:27 GMT 47.865616 -0.869188 29,000 235 437 0
2019-08-22 16:19:20 GMT 47.875488 -0.848557 29,000 235 436 0
2019-08-22 16:19:17 GMT 47.878281 -0.842720 29,000 235 436 0
2019-08-22 16:19:14 GMT 47.880840 -0.837496 29,000 235 436 0
2019-08-22 16:19:08 GMT 47.888809 -0.820747 29,000 235 436 0
2019-08-22 16:19:01 GMT 47.896854 -0.803974 29,000 235 436 0
2019-08-22 16:18:56 GMT 47.902954 -0.791084 29,000 235 436 0
2019-08-22 16:18:52 GMT 47.917648 -0.760254 29,000 235 436 0
2019-08-22 16:18:43 GMT 47.917648 -0.760254 29,000 235 436 0
2019-08-22 16:18:40 GMT 47.920643 -0.753972 29,000 235 436 0
2019-08-22 16:18:34 GMT 47.932343 -0.729355 29,000 235 436 0
2019-08-22 16:18:31 GMT 47.932343 -0.729355 29,000 235 436 0
2019-08-22 16:18:27 GMT 47.936329 -0.720872 29,000 235 436 0
2019-08-22 16:18:24 GMT 47.939896 -0.713356 29,000 235 436 0
2019-08-22 16:18:21 GMT 47.942230 -0.708481 29,000 235 436 0
2019-08-22 16:18:18 GMT 47.946850 -0.698759 29,000 235 436 0
2019-08-22 16:18:13 GMT 47.952667 -0.686505 29,000 235 436 0
2019-08-22 16:18:10 GMT 47.956627 -0.678194 29,000 235 436 0
2019-08-22 16:18:05 GMT 47.965702 -0.659039 29,000 235 436 0
2019-08-22 16:18:01 GMT 47.969475 -0.651151 29,000 235 436 0
2019-08-22 16:17:58 GMT 47.969475 -0.651151 29,000 235 436 0
2019-08-22 16:17:54 GMT 47.977993 -0.633193 29,000 235 437 0
2019-08-22 16:17:48 GMT 47.981506 -0.625671 29,000 235 437 0
2019-08-22 16:17:45 GMT 47.984978 -0.618474 29,000 235 438 0
2019-08-22 16:17:42 GMT 47.988235 -0.611572 29,000 235 438 0
2019-08-22 16:17:38 GMT 47.993031 -0.601501 29,000 235 438 0
2019-08-22 16:17:34 GMT 47.997826 -0.591431 29,000 235 438 0
2019-08-22 16:17:31 GMT 48.001316 -0.584036 29,000 235 438 0
2019-08-22 16:17:28 GMT 48.004990 -0.576233 29,000 235 437 0
2019-08-22 16:17:25 GMT 48.009464 -0.566782 29,000 235 437 0
2019-08-22 16:17:22 GMT 48.011856 -0.561745 29,000 235 437 0
2019-08-22 16:17:19 GMT 48.015335 -0.554329 29,000 235 437 0
2019-08-22 16:17:15 GMT 48.020168 -0.544105 29,000 235 437 0
2019-08-22 16:17:12 GMT 48.023430 -0.537203 29,000 235 437 0
2019-08-22 16:17:09 GMT 48.027988 -0.527555 29,000 235 438 0
2019-08-22 16:17:05 GMT 48.031769 -0.519585 29,000 236 438 0
2019-08-22 16:17:02 GMT 48.036228 -0.510090 29,000 236 438 0
2019-08-22 16:16:59 GMT 48.038498 -0.505234 29,000 236 438 0
2019-08-22 16:16:53 GMT 48.045307 -0.490793 29,000 235 438 0
2019-08-22 16:16:47 GMT 48.052479 -0.475440 29,000 235 438 0
2019-08-22 16:16:43 GMT 48.057503 -0.464806 29,000 235 438 0
2019-08-22 16:16:40 GMT 48.061089 -0.457130 29,000 235 438 0
2019-08-22 16:16:36 GMT 48.065277 -0.448256 29,000 235 438 0
2019-08-22 16:16:32 GMT 48.070168 -0.437833 29,000 235 438 0
2019-08-22 16:16:28 GMT 48.074890 -0.427849 29,000 235 438 0
2019-08-22 16:16:24 GMT 48.080017 -0.416931 29,000 235 438 0
2019-08-22 16:16:19 GMT 48.085201 -0.405931 29,000 235 438 0
2019-08-22 16:16:13 GMT 48.091721 -0.392057 29,000 235 438 0
2019-08-22 16:16:09 GMT 48.096909 -0.381020 29,000 235 438 0
2019-08-22 16:16:06 GMT 48.100433 -0.373604 29,000 235 438 0
2019-08-22 16:16:03 GMT 48.103912 -0.366188 29,000 235 438 0
2019-08-22 16:15:58 GMT 48.109085 -0.355154 29,000 235 438 0
2019-08-22 16:15:53 GMT 48.115219 -0.342155 29,000 235 438 0
2019-08-22 16:15:50 GMT 48.118927 -0.334259 29,000 235 438 0
2019-08-22 16:15:47 GMT 48.121948 -0.327805 29,000 235 438 0
2019-08-22 16:15:44 GMT 48.126217 -0.318815 29,000 235 438 0
2019-08-22 16:15:41 GMT 48.130325 -0.310020 29,000 235 438 0
2019-08-22 16:15:37 GMT 48.133289 -0.303673 29,000 235 438 0
2019-08-22 16:15:34 GMT 48.137650 -0.294365 29,000 236 438 0
2019-08-22 16:15:30 GMT 48.143066 -0.282898 29,000 236 438 0
2019-08-22 16:15:27 GMT 48.145954 -0.276701 29,000 236 438 0
2019-08-22 16:15:24 GMT 48.149445 -0.269235 29,000 236 438 0
2019-08-22 16:15:21 GMT 48.152004 -0.263813 29,000 236 438 0
2019-08-22 16:15:16 GMT 48.157780 -0.251418 29,000 236 438 0
2019-08-22 16:15:11 GMT 48.163971 -0.238178 29,000 236 437 0
2019-08-22 16:15:08 GMT 48.167648 -0.230424 29,000 236 437 0
2019-08-22 16:15:05 GMT 48.170563 -0.224093 29,000 236 436 0
2019-08-22 16:15:01 GMT 48.177238 -0.209824 29,000 236 436 0
2019-08-22 16:14:58 GMT 48.179718 -0.204515 29,000 236 436 0
2019-08-22 16:14:55 GMT 48.182545 -0.198477 29,000 236 436 0
2019-08-22 16:14:49 GMT 48.194321 -0.173105 29,000 236 436 0
2019-08-22 16:14:45 GMT 48.194321 -0.173105 29,000 236 436 0
2019-08-22 16:14:40 GMT 48.201538 -0.157639 29,000 236 436 0
2019-08-22 16:14:37 GMT 48.202656 -0.155182 29,000 236 435 0
2019-08-22 16:14:34 GMT 48.206955 -0.145851 29,000 236 436 0
2019-08-22 16:14:27 GMT 48.214096 -0.130568 29,000 236 433 0
2019-08-22 16:14:24 GMT 48.217922 -0.122295 29,000 236 435 0
2019-08-22 16:14:17 GMT 48.226273 -0.104370 29,000 236 434 0
2019-08-22 16:14:14 GMT 48.229935 -0.096482 29,000 236 434 0
2019-08-22 16:14:07 GMT 48.237808 -0.079440 29,000 236 434 0
2019-08-22 16:14:03 GMT 48.242455 -0.069460 29,000 236 434 0
2019-08-22 16:13:57 GMT 48.249115 -0.055072 29,000 236 433 0
2019-08-22 16:13:54 GMT 48.252548 -0.047678 29,000 236 433 0
2019-08-22 16:13:51 GMT 48.255909 -0.040404 29,000 236 433 0
2019-08-22 16:13:45 GMT 48.263126 -0.024864 29,000 236 433 0
2019-08-22 16:13:42 GMT 48.265686 -0.019296 29,000 236 433 0
2019-08-22 16:13:37 GMT 48.272186 -0.005211 29,000 236 433 0
2019-08-22 16:13:34 GMT 48.275742 0.002530 29,000 236 433 0
2019-08-22 16:13:31 GMT 48.279099 0.009789 29,000 236 433 0
2019-08-22 16:13:28 GMT 48.281887 0.015829 29,000 236 433 0
2019-08-22 16:13:25 GMT 48.285656 0.023924 29,000 236 433 0
2019-08-22 16:13:22 GMT 48.288712 0.030494 29,000 236 433 0
2019-08-22 16:13:19 GMT 48.293243 0.040354 29,000 236 433 0
2019-08-22 16:13:14 GMT 48.299149 0.053171 29,000 236 433 0
2019-08-22 16:13:07 GMT 48.306511 0.069026 29,000 236 432 0
2019-08-22 16:13:03 GMT 48.310936 0.078639 29,000 236 432 0
2019-08-22 16:13:00 GMT 48.313450 0.084060 29,000 236 432 0
2019-08-22 16:12:56 GMT 48.319035 0.096130 29,000 236 431 0
2019-08-22 16:12:53 GMT 48.322899 0.104515 29,000 236 431 0
2019-08-22 16:12:47 GMT 48.328114 0.115790 29,000 236 431 0
2019-08-22 16:12:43 GMT 48.333069 0.126554 29,000 236 431 0
2019-08-22 16:12:40 GMT 48.336308 0.133571 29,000 236 431 0
2019-08-22 16:12:37 GMT 48.339798 0.141062 29,000 236 431 0
2019-08-22 16:12:34 GMT 48.343735 0.149654 29,000 236 431 0
2019-08-22 16:12:30 GMT 48.349091 0.161203 29,000 236 431 0
2019-08-22 16:12:27 GMT 48.351562 0.166626 29,000 236 431 0
2019-08-22 16:12:23 GMT 48.356323 0.176978 29,000 236 431 0
2019-08-22 16:12:20 GMT 48.360992 0.187120 29,000 236 431 0
2019-08-22 16:12:17 GMT 48.364151 0.194021 29,000 236 431 0
2019-08-22 16:12:13 GMT 48.366852 0.199937 29,000 236 431 0
2019-08-22 16:12:09 GMT 48.372337 0.211848 29,000 236 431 0
2019-08-22 16:12:05 GMT 48.375969 0.219727 29,000 236 431 0
2019-08-22 16:12:02 GMT 48.382553 0.234164 29,000 236 432 0
2019-08-22 16:11:55 GMT 48.387222 0.244305 29,000 236 431 0
2019-08-22 16:11:52 GMT 48.391068 0.252686 29,000 236 431 0
2019-08-22 16:11:49 GMT 48.394962 0.261142 29,000 236 431 0
2019-08-22 16:11:45 GMT 48.399536 0.271137 29,000 236 431 0
2019-08-22 16:11:42 GMT 48.402176 0.276899 29,000 236 431 0
2019-08-22 16:11:38 GMT 48.406448 0.286208 29,000 236 431 0
2019-08-22 16:11:35 GMT 48.410931 0.295908 29,000 236 431 0
2019-08-22 16:11:31 GMT 48.416061 0.307124 29,000 236 431 0
2019-08-22 16:11:28 GMT 48.418377 0.312171 29,000 236 430 0
2019-08-22 16:11:24 GMT 48.422985 0.322290 29,000 236 430 0
2019-08-22 16:11:21 GMT 48.426384 0.329662 29,000 236 430 0
2019-08-22 16:11:17 GMT 48.430618 0.338956 29,000 236 430 0
2019-08-22 16:11:14 GMT 48.435242 0.349027 29,000 236 431 0
2019-08-22 16:11:10 GMT 48.438721 0.356550 29,000 236 430 0
2019-08-22 16:11:07 GMT 48.442074 0.363922 29,000 236 430 0
2019-08-22 16:11:04 GMT 48.445705 0.371873 29,000 236 430 0
2019-08-22 16:11:01 GMT 48.448635 0.378233 29,000 236 430 0
2019-08-22 16:10:55 GMT 48.455109 0.392409 29,000 236 430 0
2019-08-22 16:10:51 GMT 48.460419 0.404029 29,000 236 430 0
2019-08-22 16:10:45 GMT 48.467026 0.418420 29,000 236 430 64
2019-08-22 16:10:40 GMT 48.472229 0.429946 29,000 236 430 0
2019-08-22 16:10:35 GMT 48.479267 0.445308 29,000 236 430 0
2019-08-22 16:10:32 GMT 48.481339 0.449946 29,000 236 430 0
2019-08-22 16:10:29 GMT 48.484203 0.456222 29,000 236 430 0
2019-08-22 16:10:24 GMT 48.491684 0.472623 29,000 236 430 0
2019-08-22 16:10:20 GMT 48.499969 0.490934 29,000 236 431 0
2019-08-22 16:10:16 GMT 48.499969 0.490934 29,000 236 431 0
2019-08-22 16:10:12 GMT 48.503357 0.498329 29,000 236 430 0
2019-08-22 16:10:09 GMT 48.507011 0.506311 29,000 236 431 0
2019-08-22 16:10:05 GMT 48.512100 0.517555 29,000 236 431 0
2019-08-22 16:10:02 GMT 48.514893 0.523752 29,000 236 431 0
2019-08-22 16:09:59 GMT 48.518883 0.532548 29,000 236 431 0
2019-08-22 16:09:52 GMT 48.527168 0.550834 29,000 236 431 0
2019-08-22 16:09:49 GMT 48.530045 0.557134 29,000 236 431 0
2019-08-22 16:09:45 GMT 48.534531 0.567064 29,000 236 431 0
2019-08-22 16:09:40 GMT 48.539474 0.577909 29,000 236 431 0
2019-08-22 16:09:37 GMT 48.543411 0.586571 29,000 236 431 0
2019-08-22 16:09:34 GMT 48.546722 0.593912 29,000 236 431 0
2019-08-22 16:09:31 GMT 48.550232 0.601713 29,000 236 431 0
2019-08-22 16:09:28 GMT 48.553890 0.609741 29,000 236 431 0
2019-08-22 16:09:24 GMT 48.557739 0.618263 29,000 236 431 0
2019-08-22 16:09:19 GMT 48.562683 0.629249 29,000 236 431 0
2019-08-22 16:09:15 GMT 48.567307 0.639390 29,000 236 431 0
2019-08-22 16:09:11 GMT 48.572800 0.651574 29,000 236 431 0
2019-08-22 16:09:07 GMT 48.577194 0.661222 29,000 236 431 0
2019-08-22 16:09:03 GMT 48.581264 0.670311 29,000 236 431 0
2019-08-22 16:08:58 GMT 48.588154 0.685489 29,000 236 431 0
2019-08-22 16:08:54 GMT 48.591042 0.691994 29,000 236 433 0
2019-08-22 16:08:51 GMT 48.596020 0.702908 29,000 236 433 0
2019-08-22 16:08:46 GMT 48.600395 0.712666 29,000 236 433 0
2019-08-22 16:08:41 GMT 48.605705 0.724375 29,000 236 433 0
2019-08-22 16:08:37 GMT 48.611160 0.736436 29,000 236 433 0
2019-08-22 16:08:33 GMT 48.614502 0.743818 29,000 236 433 0
2019-08-22 16:08:29 GMT 48.619110 0.754009 29,000 240 436 0
2019-08-22 16:08:25 GMT 48.623428 0.763691 29,000 236 434 0
2019-08-22 16:08:22 GMT 48.627769 0.773307 29,000 236 434 0
2019-08-22 16:08:18 GMT 48.632355 0.783410 29,000 236 435 0
2019-08-22 16:08:15 GMT 48.635284 0.789889 29,000 236 435 0
2019-08-22 16:08:12 GMT 48.639496 0.799185 29,000 236 435 0
2019-08-22 16:08:08 GMT 48.650116 0.822777 29,000 236 435 0
2019-08-22 16:08:03 GMT 48.650116 0.822777 29,000 236 436 -64
2019-08-22 16:07:59 GMT 48.654877 0.833341 29,000 236 436 -64
2019-08-22 16:07:54 GMT 48.659378 0.843201 29,000 237 436 0
2019-08-22 16:07:51 GMT 48.662750 0.850666 29,000 237 436 0
2019-08-22 16:07:48 GMT 48.666138 0.858553 29,000 238 436 64
2019-08-22 16:07:43 GMT 48.673996 0.877822 29,000 241 435 0
2019-08-22 16:07:40 GMT 48.673996 0.877822 29,000 241 436 0
2019-08-22 16:07:37 GMT 48.677532 0.887363 29,000 242 436 0
2019-08-22 16:07:34 GMT 48.680420 0.895458 29,000 245 436 -64
2019-08-22 16:07:31 GMT 48.683029 0.903133 29,000 246 436 -64
2019-08-22 16:07:28 GMT 48.685638 0.911372 29,000 246 436 -64
2019-08-22 16:07:25 GMT 48.687653 0.917992 29,000 247 435 -64
2019-08-22 16:07:21 GMT 48.691826 0.932681 29,000 248 435 128
2019-08-22 16:07:18 GMT 48.694061 0.940669 28,950 247 434 704
2019-08-22 16:07:14 GMT 48.696480 0.949161 28,950 248 435 960
2019-08-22 16:07:10 GMT 48.699692 0.960653 28,750 247 435 960
2019-08-22 16:07:07 GMT 48.702114 0.969327 28,850 247 436 960
2019-08-22 16:07:02 GMT 48.709946 0.997221 28,700 247 436 960
2019-08-22 16:06:58 GMT 48.709946 0.997221 28,675 247 436 1024
2019-08-22 16:06:52 GMT 48.713940 1.011393 28,600 247 436 960
2019-08-22 16:06:47 GMT 48.717987 1.025704 28,450 248 436 960
2019-08-22 16:06:41 GMT 48.722595 1.042256 28,450 248 436 896
2019-08-22 16:06:38 GMT 48.727486 1.059675 28,325 248 437 832
2019-08-22 16:06:35 GMT 48.727486 1.059675 28,275 248 437 832
2019-08-22 16:06:32 GMT 48.729813 1.067998 28,200 248 438 960
2019-08-22 16:06:28 GMT 48.735168 1.087154 28,175 248 437 896
2019-08-22 16:06:21 GMT 48.738373 1.098703 28,100 250 437 1984
2019-08-22 16:06:18 GMT 48.741264 1.109619 27,875 254 438 2560
2019-08-22 16:06:12 GMT 48.745514 1.128282 27,650 254 438 2560
2019-08-22 16:06:06 GMT 48.748665 1.144891 27,550 256 438 2560
2019-08-22 16:06:02 GMT 48.750229 1.154621 27,275 259 439 2752
2019-08-22 16:05:59 GMT 48.751511 1.163917 27,275 259 439 2752
2019-08-22 16:05:55 GMT 48.752884 1.176312 26,825 266 440 2368
2019-08-22 16:05:51 GMT 48.753784 1.186234 26,825 265 440 2496
2019-08-22 16:05:48 GMT 48.754391 1.195414 26,825 266 440 2432
2019-08-22 16:05:45 GMT 48.754852 1.205961 26,550 269 440 1984
2019-08-22 16:05:41 GMT 48.754532 1.237986 26,325 273 438 1664
2019-08-22 16:05:35 GMT 48.754532 1.237986 26,300 275 436 1792
2019-08-22 16:05:29 GMT 48.753479 1.257935 26,000 275 435 1920
2019-08-22 16:05:24 GMT 48.752808 1.269933 26,000 275 434 1920
2019-08-22 16:05:19 GMT 48.751785 1.289303 25,775 275 434 2048
2019-08-22 16:05:13 GMT 48.751087 1.301952 25,375 275 430 1984
2019-08-22 16:05:07 GMT 48.749924 1.323130 25,425 275 431 1728
2019-08-22 16:05:04 GMT 48.748672 1.346107 25,175 275 430 1984
2019-08-22 16:05:00 GMT 48.748672 1.346107 25,200 275 429 2048
2019-08-22 16:04:56 GMT 48.748077 1.356600 25,075 275 429 2240
2019-08-22 16:04:53 GMT 48.747528 1.366460 25,025 275 428 1664
2019-08-22 16:04:49 GMT 48.746990 1.375893 23,625 275 420 2048
2019-08-22 16:04:43 GMT 48.745926 1.395475 24,700 275 427 1472
2019-08-22 16:04:39 GMT 48.745193 1.407940 24,550 275 426 1856
2019-08-22 16:04:35 GMT 48.744522 1.420561 24,375 275 424 2112
2019-08-22 16:04:32 GMT 48.744148 1.426777 24,225 275 422 1920
2019-08-22 16:04:28 GMT 48.743500 1.438558 24,200 275 423 2176
2019-08-22 16:04:23 GMT 48.742676 1.453505 24,025 275 423 2176
2019-08-22 16:04:20 GMT 48.742172 1.462027 23,825 275 419 2112
2019-08-22 16:04:16 GMT 48.741577 1.472309 23,775 275 420 1856
2019-08-22 16:04:12 GMT 48.740845 1.485684 23,475 275 419 2432
2019-08-22 16:04:05 GMT 48.739727 1.505272 23,325 275 418 2432
2019-08-22 16:04:02 GMT 48.739170 1.515463 23,250 275 418 2304
2019-08-22 16:03:59 GMT 48.738785 1.521747 23,100 275 418 2048
2019-08-22 16:03:56 GMT 48.738190 1.532241 23,050 275 417 1856
2019-08-22 16:03:53 GMT 48.737774 1.539893 22,825 275 416 1728
2019-08-22 16:03:50 GMT 48.737137 1.550762 22,750 275 414 2112
2019-08-22 16:03:44 GMT 48.736313 1.565833 22,725 275 414 2240
2019-08-22 16:03:41 GMT 48.735626 1.577594 22,450 275 413 2368
2019-08-22 16:03:33 GMT 48.734390 1.599145 22,175 275 411 2176
2019-08-22 16:03:30 GMT 48.733864 1.609063 22,100 275 410 2240
2019-08-22 16:03:26 GMT 48.732834 1.626329 21,925 275 409 2304
2019-08-22 16:03:20 GMT 48.732185 1.637541 21,650 275 408 2240
2019-08-22 16:03:16 GMT 48.731068 1.657129 21,525 276 407 2368
2019-08-22 16:03:13 GMT 48.731068 1.657129 21,300 275 405 2432
2019-08-22 16:03:09 GMT 48.730000 1.675849 21,000 275 405 2432
2019-08-22 16:03:06 GMT 48.729401 1.686120 21,075 275 404 2368
2019-08-22 16:03:02 GMT 48.729401 1.686120 20,800 275 404 2304
2019-08-22 16:02:59 GMT 48.728760 1.697106 20,900 276 403 2304
2019-08-22 16:02:56 GMT 48.728531 1.701332 20,825 276 402 2304
2019-08-22 16:02:53 GMT 48.727936 1.711402 20,700 276 401 2496
2019-08-22 16:02:49 GMT 48.727249 1.722882 20,325 276 399 2432
2019-08-22 16:02:46 GMT 48.726334 1.738798 19,900 276 399 2496
2019-08-22 16:02:40 GMT 48.725739 1.748798 20,125 276 399 2496
2019-08-22 16:02:37 GMT 48.725388 1.754777 20,050 276 398 2560
2019-08-22 16:02:33 GMT 48.724785 1.765619 19,900 276 398 2688
2019-08-22 16:02:30 GMT 48.724178 1.776099 19,675 276 397 2560
2019-08-22 16:02:27 GMT 48.723667 1.784411 19,300 276 394 2688
2019-08-22 16:02:24 GMT 48.722809 1.798870 19,350 276 395 2624
2019-08-22 16:02:18 GMT 48.722317 1.807829 19,200 276 394 2688
2019-08-22 16:02:15 GMT 48.721619 1.819787 18,900 276 393 2752
2019-08-22 16:02:12 GMT 48.721199 1.826477 18,900 276 393 2752
2019-08-22 16:02:08 GMT 48.720703 1.834576 18,800 276 391 2944
2019-08-22 16:02:05 GMT 48.720062 1.845774 18,550 276 391 2880
2019-08-22 16:01:58 GMT 48.718964 1.863845 18,225 276 391 2944
2019-08-22 16:01:54 GMT 48.718323 1.874930 18,125 276 390 2880
2019-08-22 16:01:51 GMT 48.717896 1.882131 17,875 276 389 2752
2019-08-22 16:01:48 GMT 48.717289 1.891889 17,550 276 387 2752
2019-08-22 16:01:42 GMT 48.716267 1.909164 17,450 276 385 2688
2019-08-22 16:01:39 GMT 48.715942 1.914438 17,400 276 386 2752
2019-08-22 16:01:36 GMT 48.715427 1.923186 17,300 276 386 2752
2019-08-22 16:01:33 GMT 48.714798 1.932960 17,050 276 384 2688
2019-08-22 16:01:30 GMT 48.714031 1.945953 16,900 276 383 2688
2019-08-22 16:01:27 GMT 48.714031 1.945953 16,825 276 383 2688
2019-08-22 16:01:21 GMT 48.712967 1.963384 16,400 276 380 2752
2019-08-22 16:01:17 GMT 48.712326 1.974018 16,350 276 379 2688
2019-08-22 16:01:12 GMT 48.711426 1.988598 16,100 276 377 2816
2019-08-22 16:01:07 GMT 48.710724 2.000162 15,900 276 376 3264
2019-08-22 16:01:03 GMT 48.710175 2.009160 15,700 276 376 3200
2019-08-22 16:01:00 GMT 48.709702 2.016859 15,400 276 373 1472
2019-08-22 16:00:56 GMT 48.708984 2.029020 15,350 276 374 1984
2019-08-22 16:00:53 GMT 48.708572 2.035781 15,300 276 373 1408
2019-08-22 16:00:50 GMT 48.708073 2.043746 15,200 276 371 960
2019-08-22 16:00:46 GMT 48.707474 2.053950 15,000 276 371 -64
2019-08-22 16:00:43 GMT 48.706909 2.063117 15,100 276 370 1216
2019-08-22 16:00:39 GMT 48.706284 2.073529 15,025 276 370 704
2019-08-22 16:00:36 GMT 48.705734 2.082050 15,000 276 370 128
2019-08-22 16:00:32 GMT 48.705093 2.092462 15,000 276 370 0
2019-08-22 16:00:28 GMT 48.703995 2.110924 15,000 276 371 -64
2019-08-22 16:00:24 GMT 48.703995 2.110924 15,000 276 371 -64
2019-08-22 16:00:20 GMT 48.702896 2.128953 15,000 276 371 -64
2019-08-22 16:00:13 GMT 48.702255 2.139306 15,000 276 371 64
2019-08-22 16:00:10 GMT 48.701836 2.146165 15,000 276 371 192
2019-08-22 16:00:07 GMT 48.701248 2.155363 14,975 276 370 640
2019-08-22 16:00:04 GMT 48.700809 2.162427 14,950 276 370 960
2019-08-22 16:00:01 GMT 48.700378 2.170011 14,725 276 368 1024
2019-08-22 15:59:58 GMT 48.699368 2.185846 14,800 276 368 1024
2019-08-22 15:59:55 GMT 48.699368 2.185846 14,725 276 367 1024
2019-08-22 15:59:51 GMT 48.698574 2.199145 14,675 276 366 1024
2019-08-22 15:59:48 GMT 48.698204 2.204493 14,650 276 366 1024
2019-08-22 15:59:45 GMT 48.697784 2.211938 14,550 276 365 960
2019-08-22 15:59:42 GMT 48.697266 2.219943 14,550 276 366 1024
2019-08-22 15:59:36 GMT 48.696167 2.237760 14,425 276 365 1024
2019-08-22 15:59:33 GMT 48.695847 2.242831 14,375 276 365 1024
2019-08-22 15:59:30 GMT 48.694839 2.258817 14,300 276 365 960
2019-08-22 15:59:23 GMT 48.694153 2.269110 14,225 276 365 896
2019-08-22 15:59:19 GMT 48.693649 2.277621 14,150 276 364 896
2019-08-22 15:59:16 GMT 48.693054 2.286987 14,125 276 364 896
2019-08-22 15:59:12 GMT 48.692505 2.295368 13,700 276 363 960
2019-08-22 15:59:06 GMT 48.691360 2.313397 13,950 276 363 1152
2019-08-22 15:59:02 GMT 48.690849 2.320790 13,875 276 362 1792
2019-08-22 15:58:57 GMT 48.689964 2.334667 13,650 276 360 2880
2019-08-22 15:58:54 GMT 48.689499 2.341895 13,550 276 358 2944
2019-08-22 15:58:51 GMT 48.689163 2.347060 13,450 276 358 2944
2019-08-22 15:58:47 GMT 48.688335 2.360109 13,150 276 357 3200
2019-08-22 15:58:44 GMT 48.687881 2.366920 13,025 276 356 3264
2019-08-22 15:58:41 GMT 48.687469 2.373399 12,925 276 356 3200
2019-08-22 15:58:37 GMT 48.686829 2.383540 12,650 276 354 2816
2019-08-22 15:58:34 GMT 48.686333 2.391044 12,475 276 353 2560
2019-08-22 15:58:31 GMT 48.685867 2.398541 12,400 276 351 2240
2019-08-22 15:58:27 GMT 48.685261 2.407741 12,300 276 347 1280
2019-08-22 15:58:24 GMT 48.684723 2.416358 12,100 276 330 896
2019-08-22 15:58:21 GMT 48.684174 2.424950 12,175 276 339 960
2019-08-22 15:58:17 GMT 48.683670 2.433120 12,125 276 330 896
2019-08-22 15:58:12 GMT 48.683071 2.442940 12,075 276 325 896
2019-08-22 15:58:08 GMT 48.682526 2.451712 12,000 276 321 960
2019-08-22 15:58:05 GMT 48.682140 2.458263 11,950 276 315 1024
2019-08-22 15:58:02 GMT 48.681610 2.466572 11,875 276 307 896
2019-08-22 15:57:59 GMT 48.681107 2.474952 11,800 276 301 960
2019-08-22 15:57:54 GMT 48.680511 2.485006 11,775 276 298 960
2019-08-22 15:57:51 GMT 48.680328 2.488259 11,675 276 292 1024
2019-08-22 15:57:48 GMT 48.679859 2.495703 11,700 276 292 1024
2019-08-22 15:57:45 GMT 48.679047 2.508897 11,575 276 283 960
2019-08-22 15:57:41 GMT 48.679047 2.508897 11,575 276 278 832
2019-08-22 15:57:38 GMT 48.678772 2.513968 11,525 276 273 1024
2019-08-22 15:57:34 GMT 48.678230 2.521651 11,325 267 264 3072
2019-08-22 15:57:31 GMT 48.677765 2.528405 11,250 277 265 2688
2019-08-22 15:57:28 GMT 48.677299 2.534445 11,125 274 264 3008
2019-08-22 15:57:24 GMT 48.676895 2.541152 11,025 272 265 3072
2019-08-22 15:57:21 GMT 48.676884 2.546732 10,700 267 264 3072
2019-08-22 15:57:17 GMT 48.677582 2.555448 10,550 258 263 3008
2019-08-22 15:57:13 GMT 48.678223 2.559885 10,475 254 263 2944
2019-08-22 15:57:10 GMT 48.679489 2.565741 10,250 247 262 2816
2019-08-22 15:57:05 GMT 48.682480 2.575026 10,075 240 262 2752
2019-08-22 15:57:01 GMT 48.685123 2.580847 9,825 229 260 2688
2019-08-22 15:56:57 GMT 48.687607 2.585168 9,675 224 259 2816
2019-08-22 15:56:53 GMT 48.695755 2.595238 9,425 218 259 3008
2019-08-22 15:56:50 GMT 48.695755 2.595238 9,250 206 258 2944
2019-08-22 15:56:43 GMT 48.705280 2.601375 8,875 197 258 2880
2019-08-22 15:56:40 GMT 48.705280 2.601375 8,850 192 259 2880
2019-08-22 15:56:37 GMT 48.708481 2.602492 8,675 190 258 2944
2019-08-22 15:56:33 GMT 48.713520 2.603398 8,275 168 260 3136
2019-08-22 15:56:29 GMT 48.718452 2.603326 8,275 168 260 3136
2019-08-22 15:56:25 GMT 48.723946 2.602170 8,025 164 260 3200
2019-08-22 15:56:22 GMT 48.726879 2.601085 7,950 161 260 3264
2019-08-22 15:56:19 GMT 48.730545 2.599041 7,725 153 262 3072
2019-08-22 15:56:16 GMT 48.733444 2.596893 7,600 147 262 3008
2019-08-22 15:56:12 GMT 48.737587 2.593063 7,475 144 262 3008
2019-08-22 15:56:09 GMT 48.740021 2.590238 7,250 137 262 3136
2019-08-22 15:56:06 GMT 48.743263 2.585690 7,050 128 263 3328
2019-08-22 15:56:03 GMT 48.745285 2.582210 6,900 125 263 3392
2019-08-22 15:56:00 GMT 48.747734 2.577306 6,725 119 263 3392
2019-08-22 15:55:56 GMT 48.750595 2.569322 6,450 109 263 3200
2019-08-22 15:55:51 GMT 48.752106 2.562913 6,275 103 262 3200
2019-08-22 15:55:48 GMT 48.752884 2.557913 6,150 99 262 3200
2019-08-22 15:55:44 GMT 48.753525 2.548828 5,825 90 260 3264
2019-08-22 15:55:41 GMT 48.753647 2.544853 5,525 90 259 3328
2019-08-22 15:55:37 GMT 48.753834 2.526350 5,275 90 258 3392
2019-08-22 15:55:31 GMT 48.753834 2.526350 5,075 91 258 3584
2019-08-22 15:55:28 GMT 48.753880 2.521145 5,000 91 258 3712
2019-08-22 15:55:24 GMT 48.753983 2.513475 4,700 91 258 3968
2019-08-22 15:55:21 GMT 48.754074 2.507700 4,275 91 259 3776
2019-08-22 15:55:18 GMT 48.754166 2.501925 4,325 91 259 3328
2019-08-22 15:55:15 GMT 48.754253 2.497294 4,200 91 258 2944
2019-08-22 15:55:10 GMT 48.754349 2.483192 3,925 90 248 640
2019-08-22 15:55:04 GMT 48.754391 2.477345 3,925 90 232 0
2019-08-22 15:55:00 GMT 48.754391 2.470695 3,900 91 225 640
2019-08-22 15:54:57 GMT 48.754486 2.466720 3,875 91 223 960
2019-08-22 15:54:53 GMT 48.754623 2.459811 3,775 92 210 1024
2019-08-22 15:54:50 GMT 48.754761 2.455163 3,725 93 206 1024
2019-08-22 15:54:47 GMT 48.754898 2.451571 3,725 93 206 1024
2019-08-22 15:54:42 GMT 48.755081 2.443895 3,600 91 192 960
2019-08-22 15:54:39 GMT 48.755184 2.439254 3,525 90 184 1216
2019-08-22 15:54:36 GMT 48.755230 2.436724 3,525 90 184 1216
2019-08-22 15:54:29 GMT 48.754906 2.426894 3,200 79 172 2368
2019-08-22 15:54:26 GMT 48.754578 2.423786 3,175 79 172 2432
2019-08-22 15:54:18 GMT 48.752975 2.414175 2,850 69 168 2496
2019-08-22 15:54:15 GMT 48.752472 2.411781 2,750 69 168 2560
2019-08-22 15:54:08 GMT 48.749908 2.402696 2,425 63 170 2624
2019-08-22 15:54:05 GMT 48.749130 2.400513 2,275 61 170 2240
2019-08-22 15:54:02 GMT 48.748032 2.397344 2,150 61 169 2304
2019-08-22 15:53:56 GMT 48.745594 2.390394 1,900 62 167 1984
2019-08-22 15:53:45 GMT 48.741898 2.379526 1,600 63 163 2560
2019-08-22 15:53:35 GMT 48.738472 2.368999 1,125 62 161 2624
2019-08-22 15:53:25 GMT 48.734699 2.358158 675 61 162 2368
2019-08-22 15:53:15 GMT 48.730957 2.347905 275 61 162 2176
2019-08-22 15:50:07 GMT 48.718510 2.320573 0 241 8
2019-08-22 15:49:33 GMT 48.719124 2.322270 0 241 9
2019-08-22 15:49:25 GMT 48.719269 2.322705 0 241 9
2019-08-22 15:49:17 GMT 48.719421 2.323133 0 241 9
2019-08-22 15:48:41 GMT 48.720222 2.325397 0 241 11
2019-08-22 15:48:34 GMT 48.720387 2.325867 0 241 13
2019-08-22 15:48:23 GMT 48.720680 2.326690 0 241 13
2019-08-22 15:48:14 GMT 48.720955 2.327464 0 241 15
2019-08-22 15:48:04 GMT 48.721233 2.328252 0 241 16
2019-08-22 15:45:57 GMT 48.725590 2.340634 0 255 14
2019-08-22 15:45:24 GMT 48.725075 2.343592 0 292 17
2019-08-22 15:45:21 GMT 48.724983 2.343883 0 292 17

Making use of Plane Finder data

You are free to use the raw flight data, aircraft information and images provided in this report for your own purposes provided the data is correctly attributed to Plane Finder. We ask that you please credit Plane Finder and link to planefinder.net in close proximity to the content.

Optionally one of the following logos (no smaller then 150x24px) can be used and must link to planefinder.net

Embedding the Plane Finder map

You are welcome to embed the Plane Finder playback map on your website to offer visitors a more interactive experience. We suggest using the following HTML code:

<iframe src="//planefinder.net/data/report/TO3438-F-HTVJ-7700-squawk-2019-08-22/map" width="800" height="600" seamless="seamless"></iframe>

Where our data comes from

Plane Finder has a global network of data feeds and antenna radars that receive data broadcast directly from aircraft. The primary technologies used are ADS-B and MLAT. We also show feeds from the FAA and a FLARM glider feed.

Click here to find out more about the Plane Finder network.

How we collect our data